Wetterdaten: Freitag, 09.10.2020
Datum Zeit Temp. Aussen Temp. o. S. Temp +5cm Feuchte Auss Luftdruck Regen Sonnenschein Regendauer Solar Windben Empfang
09.10.2020 00:00 13,4 C 12,2 C 12,2 C 98 % 1016,8 hPa 0,0 l/m 0 min 0 min 0 W/m 9,7 km/h (2 Bft) 100,00 %
09.10.2020 00:02 13,3 C 12,2 C 11,7 C 98 % 1016,8 hPa 0,0 l/m 0 min 0 min 0 W/m 9,7 km/h (2 Bft) 100,00 %
09.10.2020 00:04 13,3 C 12,2 C 11,7 C 98 % 1016,8 hPa 0,0 l/m 0 min 0 min 0 W/m 0,0 km/h (0 Bft) 95,74 %
09.10.2020 00:08 13,3 C 12,2 C 11,7 C 98 % 1016,9 hPa 0,0 l/m 0 min 0 min 0 W/m 9,7 km/h (2 Bft) 100,00 %
09.10.2020 00:10 13,3 C 12,2 C 11,7 C 98 % 1016,9 hPa 0,0 l/m 0 min 0 min 0 W/m 0,0 km/h (0 Bft) 100,00 %
09.10.2020 00:12 13,2 C 11,7 C 11,7 C 98 % 1016,9 hPa 0,0 l/m 0 min 0 min 0 W/m 0,0 km/h (0 Bft) 100,00 %
09.10.2020 00:14 13,2 C 11,7 C 11,7 C 98 % 1016,9 hPa 0,0 l/m 0 min 0 min 0 W/m 3,2 km/h (1 Bft) 100,00 %
09.10.2020 00:16 13,2 C 11,7 C 11,7 C 98 % 1016,9 hPa 0,0 l/m 0 min 0 min 0 W/m 0,0 km/h (0 Bft) 100,00 %
09.10.2020 00:18 13,2 C 11,7 C 11,7 C 98 % 1016,9 hPa 0,0 l/m 0 min 0 min 0 W/m 3,2 km/h (1 Bft) 100,00 %
09.10.2020 00:20 13,2 C 11,7 C 11,7 C 98 % 1017,0 hPa 0,0 l/m 0 min 0 min 0 W/m 3,2 km/h (1 Bft) 100,00 %
09.10.2020 00:22 13,2 C 11,7 C 11,7 C 98 % 1017,0 hPa 0,0 l/m 0 min 0 min 0 W/m 0,0 km/h (0 Bft) 100,00 %
09.10.2020 00:24 13,1 C 11,7 C 11,7 C 98 % 1017,0 hPa 0,0 l/m 0 min 0 min 0 W/m 9,7 km/h (2 Bft) 100,00 %
09.10.2020 00:26 13,1 C 11,7 C 11,7 C 98 % 1017,0 hPa 0,0 l/m 0 min 0 min 0 W/m 3,2 km/h (1 Bft) 100,00 %
09.10.2020 00:28 13,1 C 11,7 C 11,7 C 98 % 1017,0 hPa 0,0 l/m 0 min 0 min 0 W/m 3,2 km/h (1 Bft) 100,00 %
09.10.2020 00:30 13,0 C 11,7 C 11,7 C 98 % 1017,0 hPa 0,0 l/m 0 min 0 min 0 W/m 0,0 km/h (0 Bft) 100,00 %
09.10.2020 00:32 13,0 C 11,7 C 11,7 C 98 % 1017,0 hPa 0,0 l/m 0 min 0 min 0 W/m 3,2 km/h (1 Bft) 97,87 %
09.10.2020 00:34 12,9 C 11,7 C 11,7 C 98 % 1017,0 hPa 0,0 l/m 0 min 0 min 0 W/m 3,2 km/h (1 Bft) 97,87 %
09.10.2020 00:36 12,9 C 11,7 C 11,7 C 98 % 1017,1 hPa 0,0 l/m 0 min 0 min 0 W/m 3,2 km/h (1 Bft) 100,00 %
09.10.2020 00:38 12,9 C 11,7 C 11,1 C 98 % 1017,2 hPa 0,0 l/m 0 min 0 min 0 W/m 3,2 km/h (1 Bft) 100,00 %
09.10.2020 00:40 12,9 C 11,7 C 11,7 C 98 % 1017,2 hPa 0,0 l/m 0 min 0 min 0 W/m 0,0 km/h (0 Bft) 100,00 %
09.10.2020 00:42 12,8 C 11,7 C 11,1 C 98 % 1017,2 hPa 0,0 l/m 0 min 0 min 0 W/m 0,0 km/h (0 Bft) 100,00 %
09.10.2020 00:44 12,8 C 11,7 C 11,1 C 98 % 1017,3 hPa 0,0 l/m 0 min 0 min 0 W/m 6,4 km/h (2 Bft) 100,00 %
09.10.2020 00:46 12,8 C 11,7 C 11,1 C 98 % 1017,3 hPa 0,0 l/m 0 min 0 min 0 W/m 0,0 km/h (0 Bft) 97,87 %
09.10.2020 00:48 12,8 C 11,7 C 11,1 C 98 % 1017,3 hPa 0,0 l/m 0 min 0 min 0 W/m 0,0 km/h (0 Bft) 97,87 %
09.10.2020 00:50 12,7 C 11,1 C 11,1 C 98 % 1017,3 hPa 0,0 l/m 0 min 0 min 0 W/m 6,4 km/h (2 Bft) 100,00 %
09.10.2020 00:52 12,7 C 11,1 C 11,1 C 98 % 1017,3 hPa 0,0 l/m 0 min 0 min 0 W/m 3,2 km/h (1 Bft) 100,00 %
09.10.2020 00:54 12,7 C 11,1 C 11,1 C 98 % 1017,4 hPa 0,0 l/m 0 min 0 min 0 W/m 3,2 km/h (1 Bft) 100,00 %
09.10.2020 00:56 12,7 C 11,1 C 11,1 C 98 % 1017,5 hPa 0,0 l/m 0 min 0 min 0 W/m 3,2 km/h (1 Bft) 97,83 %
09.10.2020 00:58 12,6 C 11,1 C 11,1 C 98 % 1017,5 hPa 0,0 l/m 0 min 0 min 0 W/m 3,2 km/h (1 Bft) 100,00 %
09.10.2020 01:00 12,6 C 11,1 C 11,1 C 98 % 1017,5 hPa 0,0 l/m 0 min 0 min 0 W/m 0,0 km/h (0 Bft) 100,00 %
09.10.2020 01:02 12,6 C 11,1 C 11,1 C 98 % 1017,6 hPa 0,0 l/m 0 min 0 min 0 W/m 0,0 km/h (0 Bft) 95,74 %
09.10.2020 01:04 12,6 C 11,1 C 11,1 C 98 % 1017,5 hPa 0,0 l/m 0 min 0 min 0 W/m 0,0 km/h (0 Bft) 100,00 %
09.10.2020 01:06 12,6 C 11,1 C 11,1 C 98 % 1017,6 hPa 0,0 l/m 0 min 0 min 0 W/m 0,0 km/h (0 Bft) 97,87 %
09.10.2020 01:08 12,5 C 11,1 C 11,1 C 98 % 1017,6 hPa 0,0 l/m 0 min 0 min 0 W/m 0,0 km/h (0 Bft) 93,48 %
09.10.2020 01:10 12,5 C 11,1 C 11,1 C 98 % 1017,6 hPa 0,0 l/m 0 min 0 min 0 W/m 6,4 km/h (2 Bft) 95,74 %
09.10.2020 01:12 12,5 C 11,1 C 11,1 C 98 % 1017,6 hPa 0,0 l/m 0 min 0 min 0 W/m 0,0 km/h (0 Bft) 93,62 %
09.10.2020 01:14 12,4 C 11,1 C 11,1 C 98 % 1017,7 hPa 0,0 l/m 0 min 0 min 0 W/m 6,4 km/h (2 Bft) 93,75 %
09.10.2020 01:16 12,4 C 11,1 C 11,1 C 98 % 1017,7 hPa 0,0 l/m 0 min 0 min 0 W/m 0,0 km/h (0 Bft) 93,62 %
09.10.2020 01:18 12,4 C 11,1 C 11,1 C 98 % 1017,6 hPa 0,0 l/m 0 min 0 min 0 W/m 0,0 km/h (0 Bft) 94,29 %
09.10.2020 01:20 12,4 C 11,1 C 11,1 C 98 % 1017,6 hPa 0,0 l/m 0 min 0 min 0 W/m 0,0 km/h (0 Bft) 96,55 %
09.10.2020 01:22 12,4 C 11,1 C 11,1 C 98 % 1017,6 hPa 0,0 l/m 0 min 0 min 0 W/m 0,0 km/h (0 Bft) 94,29 %
09.10.2020 01:24 12,4 C 11,1 C 11,1 C 98 % 1017,6 hPa 0,0 l/m 0 min 0 min 0 W/m 3,2 km/h (1 Bft) 95,74 %
09.10.2020 01:26 12,4 C 11,1 C 11,1 C 98 % 1017,7 hPa 0,0 l/m 0 min 0 min 0 W/m 3,2 km/h (1 Bft) 91,49 %
09.10.2020 01:28 12,4 C 11,1 C 11,1 C 98 % 1017,8 hPa 0,0 l/m 0 min 0 min 0 W/m 3,2 km/h (1 Bft) 95,83 %
09.10.2020 01:30 12,4 C 11,1 C 11,1 C 98 % 1017,8 hPa 0,0 l/m 0 min 0 min 0 W/m 0,0 km/h (0 Bft) 95,74 %
09.10.2020 01:32 12,3 C 11,1 C 11,1 C 98 % 1017,9 hPa 0,0 l/m 0 min 0 min 0 W/m 0,0 km/h (0 Bft) 93,62 %
09.10.2020 01:34 12,3 C 11,1 C 11,1 C 98 % 1017,9 hPa 0,0 l/m 0 min 0 min 0 W/m 3,2 km/h (1 Bft) 91,30 %
09.10.2020 01:36 12,3 C 11,1 C 11,1 C 98 % 1017,9 hPa 0,0 l/m 0 min 0 min 0 W/m 0,0 km/h (0 Bft) 93,62 %
09.10.2020 01:38 12,3 C 11,1 C 11,1 C 98 % 1017,9 hPa 0,0 l/m 0 min 0 min 0 W/m 0,0 km/h (0 Bft) 95,74 %
09.10.2020 01:40 12,3 C 11,1 C 11,1 C 98 % 1017,9 hPa 0,0 l/m 0 min 0 min 0 W/m 0,0 km/h (0 Bft) 93,62 %
09.10.2020 01:42 12,3 C 11,1 C 11,1 C 98 % 1017,9 hPa 0,0 l/m 0 min 0 min 0 W/m 0,0 km/h (0 Bft) 95,74 %
09.10.2020 01:44 12,3 C 11,1 C 11,1 C 98 % 1017,9 hPa 0,0 l/m 0 min 0 min 0 W/m 0,0 km/h (0 Bft) 93,62 %
09.10.2020 01:46 12,3 C 11,1 C 11,1 C 98 % 1017,9 hPa 0,0 l/m 0 min 0 min 0 W/m 0,0 km/h (0 Bft) 93,48 %
09.10.2020 01:48 12,3 C 11,1 C 11,1 C 98 % 1018,0 hPa 0,0 l/m 0 min 0 min 0 W/m 0,0 km/h (0 Bft) 93,62 %
09.10.2020 01:50 12,3 C 11,1 C 11,1 C 98 % 1018,1 hPa 0,0 l/m 0 min 0 min 0 W/m 0,0 km/h (0 Bft) 95,74 %
09.10.2020 01:52 12,2 C 11,1 C 11,1 C 98 % 1018,0 hPa 0,0 l/m 0 min 0 min 0 W/m 0,0 km/h (0 Bft) 95,74 %
09.10.2020 01:54 12,2 C 11,1 C 11,1 C 98 % 1018,0 hPa 0,0 l/m 0 min 0 min 0 W/m 0,0 km/h (0 Bft) 95,74 %
09.10.2020 01:56 12,2 C 11,1 C 11,1 C 98 % 1017,9 hPa 0,0 l/m 0 min 0 min 0 W/m 0,0 km/h (0 Bft) 93,62 %
09.10.2020 01:58 12,2 C 11,1 C 11,1 C 98 % 1017,9 hPa 0,0 l/m 0 min 0 min 0 W/m 0,0 km/h (0 Bft) 95,24 %
09.10.2020 02:00 12,2 C 11,1 C 11,1 C 98 % 1017,9 hPa 0,0 l/m 0 min 0 min 0 W/m 0,0 km/h (0 Bft) 95,65 %
09.10.2020 02:02 12,2 C 11,1 C 11,1 C 98 % 1018,0 hPa 0,0 l/m 0 min 0 min 0 W/m 0,0 km/h (0 Bft) 95,74 %
09.10.2020 02:04 12,2 C 10,6 C 10,6 C 98 % 1018,0 hPa 0,0 l/m 0 min 0 min 0 W/m 0,0 km/h (0 Bft) 93,62 %
09.10.2020 02:06 12,2 C 10,6 C 10,6 C 98 % 1018,0 hPa 0,0 l/m 0 min 0 min 0 W/m 0,0 km/h (0 Bft) 93,62 %
09.10.2020 02:08 12,1 C 10,6 C 10,6 C 98 % 1018,1 hPa 0,0 l/m 0 min 0 min 0 W/m 0,0 km/h (0 Bft) 95,74 %
09.10.2020 02:10 12,1 C 10,6 C 11,1 C 98 % 1018,1 hPa 0,0 l/m 0 min 0 min 0 W/m 0,0 km/h (0 Bft) 95,74 %
09.10.2020 02:12 12,1 C 10,6 C 11,1 C 98 % 1018,1 hPa 0,0 l/m 0 min 0 min 0 W/m 0,0 km/h (0 Bft) 95,65 %
09.10.2020 02:14 12,1 C 10,6 C 11,1 C 98 % 1018,1 hPa 0,0 l/m 0 min 0 min 0 W/m 0,0 km/h (0 Bft) 95,74 %
09.10.2020 02:16 12,1 C 10,6 C 10,6 C 98 % 1018,2 hPa 0,0 l/m 0 min 0 min 0 W/m 0,0 km/h (0 Bft) 93,62 %
09.10.2020 02:18 12,1 C 10,6 C 10,6 C 98 % 1018,2 hPa 0,0 l/m 0 min 0 min 0 W/m 0,0 km/h (0 Bft) 91,49 %
09.10.2020 02:20 12,1 C 10,6 C 10,6 C 98 % 1018,3 hPa 0,0 l/m 0 min 0 min 0 W/m 0,0 km/h (0 Bft) 93,62 %
09.10.2020 02:22 12,0 C 10,6 C 11,1 C 98 % 1018,2 hPa 0,0 l/m 0 min 0 min 0 W/m 0,0 km/h (0 Bft) 97,87 %
09.10.2020 02:24 12,0 C 10,6 C 11,1 C 98 % 1018,3 hPa 0,0 l/m 0 min 0 min 0 W/m 0,0 km/h (0 Bft) 97,83 %
09.10.2020 02:26 12,0 C 10,6 C 11,1 C 98 % 1018,3 hPa 0,0 l/m 0 min 0 min 0 W/m 0,0 km/h (0 Bft) 97,87 %
09.10.2020 02:28 12,0 C 10,6 C 11,1 C 98 % 1018,3 hPa 0,0 l/m 0 min 0 min 0 W/m 0,0 km/h (0 Bft) 100,00 %
09.10.2020 02:30 11,9 C 10,6 C 11,1 C 98 % 1018,2 hPa 0,0 l/m 0 min 0 min 0 W/m 0,0 km/h (0 Bft) 97,87 %
09.10.2020 02:32 11,9 C 10,6 C 11,1 C 98 % 1018,2 hPa 0,0 l/m 0 min 0 min 0 W/m 0,0 km/h (0 Bft) 100,00 %
09.10.2020 02:34 11,9 C 10,6 C 11,1 C 98 % 1018,2 hPa 0,0 l/m 0 min 0 min 0 W/m 0,0 km/h (0 Bft) 100,00 %
09.10.2020 02:36 11,9 C 10,6 C 11,1 C 98 % 1018,1 hPa 0,0 l/m 0 min 0 min 0 W/m 0,0 km/h (0 Bft) 100,00 %
09.10.2020 02:38 11,9 C 10,6 C 11,1 C 98 % 1018,1 hPa 0,0 l/m 0 min 0 min 0 W/m 0,0 km/h (0 Bft) 100,00 %
09.10.2020 02:40 11,9 C 10,6 C 10,6 C 98 % 1018,2 hPa 0,0 l/m 0 min 0 min 0 W/m 0,0 km/h (0 Bft) 100,00 %
09.10.2020 02:42 11,9 C 10,6 C 10,6 C 98 % 1018,1 hPa 0,0 l/m 0 min 0 min 0 W/m 0,0 km/h (0 Bft) 100,00 %
09.10.2020 02:44 11,9 C 10,6 C 10,6 C 98 % 1018,1 hPa 0,0 l/m 0 min 0 min 0 W/m 0,0 km/h (0 Bft) 100,00 %
09.10.2020 02:46 11,9 C 10,6 C 10,6 C 98 % 1018,1 hPa 0,0 l/m 0 min 0 min 0 W/m 0,0 km/h (0 Bft) 100,00 %
09.10.2020 02:48 11,8 C 10,6 C 10,6 C 98 % 1018,2 hPa 0,0 l/m 0 min 0 min 0 W/m 0,0 km/h (0 Bft) 100,00 %
09.10.2020 02:50 11,8 C 10,6 C 10,6 C 98 % 1018,2 hPa 0,0 l/m 0 min 0 min 0 W/m 0,0 km/h (0 Bft) 100,00 %
09.10.2020 02:52 11,8 C 10,6 C 10,6 C 98 % 1018,2 hPa 0,0 l/m 0 min 0 min 0 W/m 0,0 km/h (0 Bft) 97,87 %
09.10.2020 02:54 11,8 C 10,6 C 10,6 C 98 % 1018,2 hPa 0,0 l/m 0 min 0 min 0 W/m 0,0 km/h (0 Bft) 100,00 %
09.10.2020 02:56 11,8 C 10,6 C 10,6 C 98 % 1018,2 hPa 0,0 l/m 0 min 0 min 0 W/m 0,0 km/h (0 Bft) 100,00 %
09.10.2020 02:58 11,8 C 10,6 C 10,6 C 98 % 1018,3 hPa 0,0 l/m 0 min 0 min 0 W/m 0,0 km/h (0 Bft) 97,83 %
09.10.2020 03:00 11,8 C 10,6 C 10,6 C 98 % 1018,2 hPa 0,0 l/m 0 min 0 min 0 W/m 0,0 km/h (0 Bft) 100,00 %
09.10.2020 03:02 11,8 C 10,6 C 10,6 C 98 % 1018,2 hPa 0,0 l/m 0 min 0 min 0 W/m 0,0 km/h (0 Bft) 100,00 %
09.10.2020 03:04 11,8 C 10,6 C 10,6 C 98 % 1018,3 hPa 0,0 l/m 0 min 0 min 0 W/m 0,0 km/h (0 Bft) 100,00 %
09.10.2020 03:06 11,8 C 10,6 C 10,6 C 98 % 1018,2 hPa 0,0 l/m 0 min 0 min 0 W/m 0,0 km/h (0 Bft) 100,00 %
09.10.2020 03:08 11,7 C 10,6 C 10,6 C 98 % 1018,3 hPa 0,0 l/m 0 min 0 min 0 W/m 0,0 km/h (0 Bft) 100,00 %
09.10.2020 03:10 11,7 C 10,6 C 10,6 C 98 % 1018,3 hPa 0,0 l/m 0 min 0 min 0 W/m 0,0 km/h (0 Bft) 95,65 %
09.10.2020 03:12 11,7 C 10,6 C 10,6 C 98 % 1018,3 hPa 0,0 l/m 0 min 0 min 0 W/m 0,0 km/h (0 Bft) 100,00 %
09.10.2020 03:14 11,7 C 10,6 C 10,6 C 98 % 1018,3 hPa 0,0 l/m 0 min 0 min 0 W/m 0,0 km/h (0 Bft) 100,00 %
09.10.2020 03:16 11,7 C 10,6 C 10,6 C 98 % 1018,3 hPa 0,0 l/m 0 min 0 min 0 W/m 0,0 km/h (0 Bft) 100,00 %
09.10.2020 03:18 11,7 C 10,6 C 10,6 C 98 % 1018,4 hPa 0,0 l/m 0 min 0 min 0 W/m 0,0 km/h (0 Bft) 100,00 %
09.10.2020 03:20 11,7 C 10,6 C 10,6 C 98 % 1018,4 hPa 0,0 l/m 0 min 0 min 0 W/m 0,0 km/h (0 Bft) 100,00 %
09.10.2020 03:22 11,7 C 10,6 C 10,6 C 98 % 1018,4 hPa 0,0 l/m 0 min 0 min 0 W/m 0,0 km/h (0 Bft) 100,00 %
09.10.2020 03:24 11,7 C 10,6 C 10,6 C 98 % 1018,5 hPa 0,0 l/m 0 min 0 min 0 W/m 0,0 km/h (0 Bft) 100,00 %
09.10.2020 03:26 11,7 C 10,6 C 10,6 C 98 % 1018,5 hPa 0,0 l/m 0 min 0 min 0 W/m 0,0 km/h (0 Bft) 100,00 %
09.10.2020 03:28 11,7 C 10,6 C 10,6 C 98 % 1018,4 hPa 0,0 l/m 0 min 0 min 0 W/m 0,0 km/h (0 Bft) 97,87 %
09.10.2020 03:30 11,7 C 10,6 C 10,6 C 98 % 1018,4 hPa 0,0 l/m 0 min 0 min 0 W/m 0,0 km/h (0 Bft) 100,00 %
09.10.2020 03:32 11,7 C 10,6 C 10,6 C 98 % 1018,5 hPa 0,0 l/m 0 min 0 min 0 W/m 0,0 km/h (0 Bft) 100,00 %
09.10.2020 03:34 11,7 C 10,6 C 10,6 C 98 % 1018,4 hPa 0,0 l/m 0 min 0 min 0 W/m 0,0 km/h (0 Bft) 100,00 %
09.10.2020 03:36 11,7 C 10,6 C 10,6 C 98 % 1018,3 hPa 0,0 l/m 0 min 0 min 0 W/m 0,0 km/h (0 Bft) 100,00 %
09.10.2020 03:38 11,7 C 10,6 C 10,6 C 98 % 1018,4 hPa 0,0 l/m 0 min 0 min 0 W/m 0,0 km/h (0 Bft) 97,87 %
09.10.2020 03:40 11,7 C 10,6 C 10,6 C 98 % 1018,3 hPa 0,0 l/m 0 min 0 min 0 W/m 0,0 km/h (0 Bft) 100,00 %
09.10.2020 03:42 11,7 C 10,6 C 10,6 C 98 % 1018,4 hPa 0,0 l/m 0 min 0 min 0 W/m 0,0 km/h (0 Bft) 100,00 %
09.10.2020 03:44 11,7 C 10,6 C 10,6 C 98 % 1018,3 hPa 0,0 l/m 0 min 0 min 0 W/m 0,0 km/h (0 Bft) 100,00 %
09.10.2020 03:46 11,7 C 10,6 C 10,0 C 98 % 1018,3 hPa 0,0 l/m 0 min 0 min 0 W/m 0,0 km/h (0 Bft) 95,65 %
09.10.2020 03:48 11,7 C 10,6 C 10,0 C 98 % 1018,2 hPa 0,0 l/m 0 min 0 min 0 W/m 0,0 km/h (0 Bft) 100,00 %
09.10.2020 03:50 11,6 C 10,0 C 10,0 C 98 % 1018,3 hPa 0,0 l/m 0 min 0 min 0 W/m 0,0 km/h (0 Bft) 97,87 %
09.10.2020 03:52 11,6 C 10,0 C 10,0 C 98 % 1018,3 hPa 0,0 l/m 0 min 0 min 0 W/m 0,0 km/h (0 Bft) 100,00 %
09.10.2020 03:54 11,6 C 10,0 C 10,0 C 98 % 1018,3 hPa 0,0 l/m 0 min 0 min 0 W/m 0,0 km/h (0 Bft) 95,74 %
09.10.2020 03:56 11,6 C 10,0 C 10,0 C 98 % 1018,3 hPa 0,0 l/m 0 min 0 min 0 W/m 0,0 km/h (0 Bft) 97,83 %
09.10.2020 03:58 11,6 C 10,0 C 10,0 C 98 % 1018,3 hPa 0,0 l/m 0 min 0 min 0 W/m 0,0 km/h (0 Bft) 97,87 %
09.10.2020 04:00 11,6 C 10,0 C 10,0 C 98 % 1018,3 hPa 0,0 l/m 0 min 0 min 0 W/m 0,0 km/h (0 Bft) 97,87 %
09.10.2020 04:02 11,6 C 10,0 C 10,0 C 98 % 1018,3 hPa 0,0 l/m 0 min 0 min 0 W/m 0,0 km/h (0 Bft) 94,44 %
09.10.2020 04:04 11,6 C 10,0 C 10,0 C 98 % 1018,2 hPa 0,0 l/m 0 min 0 min 0 W/m 0,0 km/h (0 Bft) 95,74 %
09.10.2020 04:06 11,6 C 10,0 C 10,0 C 98 % 1018,2 hPa 0,0 l/m 0 min 0 min 0 W/m 0,0 km/h (0 Bft) 97,87 %
09.10.2020 04:08 11,6 C 10,0 C 9,4 C 98 % 1018,3 hPa 0,0 l/m 0 min 0 min 0 W/m 0,0 km/h (0 Bft) 97,87 %
09.10.2020 04:10 11,5 C 10,0 C 9,4 C 98 % 1018,3 hPa 0,0 l/m 0 min 0 min 0 W/m 0,0 km/h (0 Bft) 97,83 %
09.10.2020 04:12 11,5 C 10,0 C 10,0 C 98 % 1018,3 hPa 0,0 l/m 0 min 0 min 0 W/m 0,0 km/h (0 Bft) 91,49 %
09.10.2020 04:14 11,5 C 10,0 C 9,4 C 98 % 1018,2 hPa 0,0 l/m 0 min 0 min 0 W/m 0,0 km/h (0 Bft) 97,87 %
09.10.2020 04:16 11,4 C 10,0 C 9,4 C 98 % 1018,2 hPa 0,0 l/m 0 min 0 min 0 W/m 0,0 km/h (0 Bft) 97,87 %
09.10.2020 04:18 11,4 C 10,0 C 9,4 C 98 % 1018,3 hPa 0,0 l/m 0 min 0 min 0 W/m 0,0 km/h (0 Bft) 95,74 %
09.10.2020 04:20 11,4 C 10,0 C 9,4 C 98 % 1018,3 hPa 0,0 l/m 0 min 0 min 0 W/m 0,0 km/h (0 Bft) 50,00 %
09.10.2020 04:22 11,4 C 10,0 C 9,4 C 98 % 1018,3 hPa 0,0 l/m 0 min 0 min 0 W/m 0,0 km/h (0 Bft) 95,74 %
09.10.2020 04:24 11,4 C 10,0 C 9,4 C 98 % 1018,4 hPa 0,0 l/m 0 min 0 min 0 W/m 0,0 km/h (0 Bft) 95,74 %
09.10.2020 04:26 11,4 C 10,0 C 9,4 C 98 % 1018,4 hPa 0,0 l/m 0 min 0 min 0 W/m 0,0 km/h (0 Bft) 95,74 %
09.10.2020 04:28 11,3 C 10,0 C 9,4 C 98 % 1018,3 hPa 0,0 l/m 0 min 0 min 0 W/m 0,0 km/h (0 Bft) 95,74 %
09.10.2020 04:30 11,3 C 10,0 C 10,0 C 98 % 1018,4 hPa 0,0 l/m 0 min 0 min 0 W/m 0,0 km/h (0 Bft) 93,62 %
09.10.2020 04:32 11,3 C 10,0 C 10,0 C 98 % 1018,4 hPa 0,0 l/m 0 min 0 min 0 W/m 0,0 km/h (0 Bft) 95,65 %
09.10.2020 04:34 11,3 C 10,0 C 10,0 C 98 % 1018,3 hPa 0,0 l/m 0 min 0 min 0 W/m 0,0 km/h (0 Bft) 95,74 %
09.10.2020 04:36 11,3 C 10,0 C 10,0 C 98 % 1018,4 hPa 0,0 l/m 0 min 0 min 0 W/m 0,0 km/h (0 Bft) 95,74 %
09.10.2020 04:38 11,3 C 10,0 C 9,4 C 98 % 1018,4 hPa 0,0 l/m 0 min 0 min 0 W/m 0,0 km/h (0 Bft) 95,74 %
09.10.2020 04:40 11,2 C 10,0 C 9,4 C 98 % 1018,4 hPa 0,0 l/m 0 min 0 min 0 W/m 0,0 km/h (0 Bft) 95,74 %
09.10.2020 04:42 11,2 C 10,0 C 10,0 C 98 % 1018,4 hPa 0,0 l/m 0 min 0 min 0 W/m 0,0 km/h (0 Bft) 97,87 %
09.10.2020 04:44 11,2 C 10,0 C 10,0 C 98 % 1018,4 hPa 0,0 l/m 0 min 0 min 0 W/m 0,0 km/h (0 Bft) 97,83 %
09.10.2020 04:46 11,2 C 10,0 C 10,0 C 98 % 1018,4 hPa 0,0 l/m 0 min 0 min 0 W/m 0,0 km/h (0 Bft) 95,74 %
09.10.2020 04:48 11,2 C 9,4 C 9,4 C 98 % 1018,3 hPa 0,0 l/m 0 min 0 min 0 W/m 0,0 km/h (0 Bft) 97,87 %
09.10.2020 04:50 11,2 C 9,4 C 9,4 C 98 % 1018,3 hPa 0,0 l/m 0 min 0 min 0 W/m 0,0 km/h (0 Bft) 95,74 %
09.10.2020 04:52 11,2 C 9,4 C 9,4 C 98 % 1018,3 hPa 0,0 l/m 0 min 0 min 0 W/m 0,0 km/h (0 Bft) 97,87 %
09.10.2020 04:54 11,2 C 9,4 C 9,4 C 98 % 1018,3 hPa 0,0 l/m 0 min 0 min 0 W/m 0,0 km/h (0 Bft) 95,74 %
09.10.2020 04:56 11,1 C 9,4 C 9,4 C 98 % 1018,3 hPa 0,0 l/m 0 min 0 min 0 W/m 0,0 km/h (0 Bft) 97,83 %
09.10.2020 04:58 11,1 C 9,4 C 9,4 C 98 % 1018,3 hPa 0,0 l/m 0 min 0 min 0 W/m 0,0 km/h (0 Bft) 100,00 %
09.10.2020 05:00 11,1 C 9,4 C 9,4 C 98 % 1018,3 hPa 0,0 l/m 0 min 0 min 0 W/m 0,0 km/h (0 Bft) 100,00 %
09.10.2020 05:02 11,1 C 9,4 C 9,4 C 98 % 1018,3 hPa 0,0 l/m 0 min 0 min 0 W/m 0,0 km/h (0 Bft) 100,00 %
09.10.2020 05:04 11,1 C 9,4 C 9,4 C 98 % 1018,3 hPa 0,0 l/m 0 min 0 min 0 W/m 0,0 km/h (0 Bft) 100,00 %
09.10.2020 05:06 11,1 C 9,4 C 9,4 C 98 % 1018,3 hPa 0,0 l/m 0 min 0 min 0 W/m 0,0 km/h (0 Bft) 100,00 %
09.10.2020 05:08 11,0 C 10,0 C 9,4 C 98 % 1018,2 hPa 0,0 l/m 0 min 0 min 0 W/m 0,0 km/h (0 Bft) 100,00 %
09.10.2020 05:10 11,0 C 10,0 C 9,4 C 98 % 1018,2 hPa 0,0 l/m 0 min 0 min 0 W/m 0,0 km/h (0 Bft) 100,00 %
09.10.2020 05:12 11,0 C 10,0 C 9,4 C 98 % 1018,2 hPa 0,0 l/m 0 min 0 min 0 W/m 0,0 km/h (0 Bft) 100,00 %
09.10.2020 05:14 11,0 C 10,0 C 9,4 C 98 % 1018,3 hPa 0,0 l/m 0 min 0 min 0 W/m 0,0 km/h (0 Bft) 100,00 %
09.10.2020 05:16 10,9 C 10,0 C 9,4 C 98 % 1018,3 hPa 0,0 l/m 0 min 0 min 0 W/m 0,0 km/h (0 Bft) 100,00 %
09.10.2020 05:18 10,9 C 10,0 C 9,4 C 98 % 1018,4 hPa 0,0 l/m 0 min 0 min 0 W/m 0,0 km/h (0 Bft) 100,00 %
09.10.2020 05:20 10,9 C 9,4 C 9,4 C 98 % 1018,3 hPa 0,0 l/m 0 min 0 min 0 W/m 0,0 km/h (0 Bft) 100,00 %
09.10.2020 05:22 10,9 C 9,4 C 9,4 C 98 % 1018,3 hPa 0,0 l/m 0 min 0 min 0 W/m 0,0 km/h (0 Bft) 95,74 %
09.10.2020 05:24 10,9 C 9,4 C 9,4 C 98 % 1018,3 hPa 0,0 l/m 0 min 0 min 0 W/m 0,0 km/h (0 Bft) 100,00 %
09.10.2020 05:26 10,9 C 9,4 C 9,4 C 98 % 1018,3 hPa 0,0 l/m 0 min 0 min 0 W/m 0,0 km/h (0 Bft) 97,87 %
09.10.2020 05:28 10,8 C 9,4 C 8,9 C 98 % 1018,4 hPa 0,0 l/m 0 min 0 min 0 W/m 0,0 km/h (0 Bft) 97,87 %
09.10.2020 05:30 10,8 C 9,4 C 8,9 C 98 % 1018,4 hPa 0,0 l/m 0 min 0 min 0 W/m 0,0 km/h (0 Bft) 100,00 %
09.10.2020 05:32 10,8 C 9,4 C 8,9 C 98 % 1018,4 hPa 0,0 l/m 0 min 0 min 0 W/m 0,0 km/h (0 Bft) 98,15 %
09.10.2020 05:34 10,8 C 8,9 C 8,9 C 98 % 1018,4 hPa 0,0 l/m 0 min 0 min 0 W/m 0,0 km/h (0 Bft) 100,00 %
09.10.2020 05:36 10,8 C 8,9 C 8,9 C 98 % 1018,4 hPa 0,0 l/m 0 min 0 min 0 W/m 0,0 km/h (0 Bft) 97,87 %
09.10.2020 05:38 10,8 C 9,4 C 8,9 C 98 % 1018,4 hPa 0,0 l/m 0 min 0 min 0 W/m 0,0 km/h (0 Bft) 100,00 %
09.10.2020 05:40 10,7 C 8,9 C 8,9 C 98 % 1018,3 hPa 0,0 l/m 0 min 0 min 0 W/m 0,0 km/h (0 Bft) 95,74 %
09.10.2020 05:42 10,7 C 8,9 C 8,9 C 98 % 1018,3 hPa 0,0 l/m 0 min 0 min 0 W/m 0,0 km/h (0 Bft) 100,00 %
09.10.2020 05:44 10,7 C 8,9 C 8,9 C 98 % 1018,3 hPa 0,0 l/m 0 min 0 min 0 W/m 0,0 km/h (0 Bft) 100,00 %
09.10.2020 05:46 10,7 C 8,9 C 8,9 C 98 % 1018,3 hPa 0,0 l/m 0 min 0 min 0 W/m 0,0 km/h (0 Bft) 100,00 %
09.10.2020 05:48 10,6 C 8,9 C 8,9 C 98 % 1018,3 hPa 0,0 l/m 0 min 0 min 0 W/m 0,0 km/h (0 Bft) 100,00 %
09.10.2020 05:50 10,6 C 8,9 C 8,9 C 98 % 1018,3 hPa 0,0 l/m 0 min 0 min 0 W/m 0,0 km/h (0 Bft) 97,83 %
09.10.2020 05:52 10,6 C 9,4 C 8,9 C 98 % 1018,4 hPa 0,0 l/m 0 min 0 min 0 W/m 0,0 km/h (0 Bft) 97,87 %
09.10.2020 05:54 10,6 C 9,4 C 8,9 C 98 % 1018,3 hPa 0,0 l/m 0 min 0 min 0 W/m 0,0 km/h (0 Bft) 97,87 %
09.10.2020 05:56 10,6 C 9,4 C 8,9 C 98 % 1018,4 hPa 0,0 l/m 0 min 0 min 0 W/m 0,0 km/h (0 Bft) 95,74 %
09.10.2020 05:58 10,6 C 9,4 C 9,4 C 98 % 1018,3 hPa 0,0 l/m 0 min 0 min 0 W/m 0,0 km/h (0 Bft) 97,87 %
09.10.2020 06:00 10,6 C 9,4 C 9,4 C 98 % 1018,4 hPa 0,0 l/m 0 min 0 min 0 W/m 0,0 km/h (0 Bft) 97,83 %
09.10.2020 06:02 10,6 C 9,4 C 9,4 C 98 % 1018,5 hPa 0,0 l/m 0 min 0 min 0 W/m 0,0 km/h (0 Bft) 95,74 %
09.10.2020 06:04 10,5 C 9,4 C 9,4 C 98 % 1018,4 hPa 0,0 l/m 0 min 0 min 0 W/m 0,0 km/h (0 Bft) 97,87 %
09.10.2020 06:07 10,5 C 9,4 C 9,4 C 98 % 1018,4 hPa 0,0 l/m 0 min 0 min 0 W/m 0,0 km/h (0 Bft) 97,14 %
09.10.2020 06:08 10,5 C 9,4 C 9,4 C 98 % 1018,4 hPa 0,0 l/m 0 min 0 min 0 W/m 0,0 km/h (0 Bft) 95,83 %
09.10.2020 06:10 10,5 C 9,4 C 8,9 C 98 % 1018,4 hPa 0,0 l/m 0 min 0 min 0 W/m 0,0 km/h (0 Bft) 97,87 %
09.10.2020 06:12 10,5 C 9,4 C 8,9 C 98 % 1018,4 hPa 0,0 l/m 0 min 0 min 0 W/m 0,0 km/h (0 Bft) 97,83 %
09.10.2020 06:14 10,5 C 8,9 C 8,9 C 98 % 1018,4 hPa 0,0 l/m 0 min 0 min 0 W/m 0,0 km/h (0 Bft) 97,87 %
09.10.2020 06:16 10,5 C 8,9 C 8,9 C 98 % 1018,4 hPa 0,0 l/m 0 min 0 min 0 W/m 0,0 km/h (0 Bft) 97,87 %
09.10.2020 06:18 10,4 C 8,9 C 8,9 C 98 % 1018,3 hPa 0,0 l/m 0 min 0 min 0 W/m 0,0 km/h (0 Bft) 97,87 %
09.10.2020 06:20 10,4 C 8,3 C 8,9 C 98 % 1018,3 hPa 0,0 l/m 0 min 0 min 0 W/m 0,0 km/h (0 Bft) 97,87 %
09.10.2020 06:22 10,4 C 8,3 C 8,3 C 98 % 1018,3 hPa 0,0 l/m 0 min 0 min 0 W/m 0,0 km/h (0 Bft) 97,87 %
09.10.2020 06:24 10,4 C 8,3 C 8,3 C 98 % 1018,3 hPa 0,0 l/m 0 min 0 min 0 W/m 0,0 km/h (0 Bft) 97,83 %
09.10.2020 06:26 10,4 C 8,3 C 8,3 C 98 % 1018,4 hPa 0,0 l/m 0 min 0 min 0 W/m 0,0 km/h (0 Bft) 97,87 %
09.10.2020 06:28 10,4 C 8,3 C 8,3 C 98 % 1018,3 hPa 0,0 l/m 0 min 0 min 0 W/m 0,0 km/h (0 Bft) 95,74 %
09.10.2020 06:30 10,3 C 8,3 C 8,3 C 98 % 1018,4 hPa 0,0 l/m 0 min 0 min 0 W/m 0,0 km/h (0 Bft) 95,74 %
09.10.2020 06:32 10,3 C 8,3 C 8,3 C 98 % 1018,4 hPa 0,0 l/m 0 min 0 min 0 W/m 0,0 km/h (0 Bft) 97,87 %
09.10.2020 06:34 10,3 C 7,8 C 8,3 C 98 % 1018,4 hPa 0,0 l/m 0 min 0 min 0 W/m 0,0 km/h (0 Bft) 97,87 %
09.10.2020 06:36 10,2 C 7,8 C 8,3 C 98 % 1018,3 hPa 0,0 l/m 0 min 0 min 0 W/m 0,0 km/h (0 Bft) 93,48 %
09.10.2020 06:38 10,2 C 7,8 C 7,8 C 98 % 1018,2 hPa 0,0 l/m 0 min 0 min 0 W/m 0,0 km/h (0 Bft) 95,74 %
09.10.2020 06:40 10,2 C 7,8 C 7,8 C 98 % 1018,3 hPa 0,0 l/m 0 min 0 min 0 W/m 0,0 km/h (0 Bft) 93,62 %
09.10.2020 06:42 10,1 C 7,8 C 7,8 C 98 % 1018,3 hPa 0,0 l/m 0 min 0 min 0 W/m 0,0 km/h (0 Bft) 95,74 %
09.10.2020 06:44 10,1 C 7,8 C 7,8 C 98 % 1018,3 hPa 0,0 l/m 0 min 0 min 0 W/m 0,0 km/h (0 Bft) 91,49 %
09.10.2020 06:46 10,1 C 7,8 C 7,8 C 98 % 1018,3 hPa 0,0 l/m 0 min 0 min 0 W/m 0,0 km/h (0 Bft) 95,74 %
09.10.2020 06:48 10,0 C 7,8 C 7,8 C 98 % 1018,3 hPa 0,0 l/m 0 min 0 min 0 W/m 0,0 km/h (0 Bft) 93,48 %
09.10.2020 06:50 9,9 C 7,8 C 7,8 C 98 % 1018,3 hPa 0,0 l/m 0 min 0 min 0 W/m 0,0 km/h (0 Bft) 93,62 %
09.10.2020 06:52 9,9 C 7,8 C 7,8 C 98 % 1018,3 hPa 0,0 l/m 0 min 0 min 0 W/m 0,0 km/h (0 Bft) 91,49 %
09.10.2020 06:54 9,9 C 7,8 C 7,8 C 98 % 1018,3 hPa 0,0 l/m 0 min 0 min 0 W/m 0,0 km/h (0 Bft) 93,62 %
09.10.2020 06:56 9,8 C 7,8 C 7,8 C 98 % 1018,2 hPa 0,0 l/m 0 min 0 min 0 W/m 0,0 km/h (0 Bft) 93,62 %
09.10.2020 06:58 9,8 C 7,8 C 7,8 C 98 % 1018,3 hPa 0,0 l/m 0 min 0 min 0 W/m 0,0 km/h (0 Bft) 93,62 %
09.10.2020 07:00 9,8 C 7,8 C 7,2 C 98 % 1018,3 hPa 0,0 l/m 0 min 0 min 0 W/m 0,0 km/h (0 Bft) 93,48 %
09.10.2020 07:02 9,7 C 7,2 C 7,2 C 98 % 1018,3 hPa 0,0 l/m 0 min 0 min 0 W/m 0,0 km/h (0 Bft) 89,36 %
09.10.2020 07:04 9,7 C 7,2 C 7,2 C 98 % 1018,3 hPa 0,0 l/m 0 min 0 min 0 W/m 0,0 km/h (0 Bft) 91,49 %
09.10.2020 07:06 9,7 C 7,2 C 7,2 C 98 % 1018,3 hPa 0,0 l/m 0 min 0 min 0 W/m 0,0 km/h (0 Bft) 93,62 %
09.10.2020 07:08 9,6 C 7,8 C 7,2 C 98 % 1018,3 hPa 0,0 l/m 0 min 0 min 0 W/m 0,0 km/h (0 Bft) 93,62 %
09.10.2020 07:10 9,6 C 7,8 C 7,2 C 98 % 1018,3 hPa 0,0 l/m 0 min 0 min 0 W/m 0,0 km/h (0 Bft) 93,48 %
09.10.2020 07:12 9,6 C 7,2 C 7,2 C 98 % 1018,3 hPa 0,0 l/m 0 min 0 min 0 W/m 0,0 km/h (0 Bft) 95,74 %
09.10.2020 07:14 9,5 C 7,8 C 7,2 C 98 % 1018,4 hPa 0,0 l/m 0 min 0 min 0 W/m 0,0 km/h (0 Bft) 95,74 %
09.10.2020 07:16 9,4 C 7,8 C 7,2 C 98 % 1018,4 hPa 0,0 l/m 0 min 0 min 0 W/m 0,0 km/h (0 Bft) 95,74 %
09.10.2020 07:18 9,4 C 7,8 C 7,2 C 98 % 1018,3 hPa 0,0 l/m 0 min 0 min 0 W/m 0,0 km/h (0 Bft) 95,74 %
09.10.2020 07:20 9,4 C 7,8 C 7,2 C 98 % 1018,3 hPa 0,0 l/m 0 min 0 min 0 W/m 0,0 km/h (0 Bft) 93,62 %
09.10.2020 07:22 9,4 C 7,8 C 7,2 C 98 % 1018,3 hPa 0,0 l/m 0 min 0 min 0 W/m 0,0 km/h (0 Bft) 95,65 %
09.10.2020 07:24 9,3 C 7,8 C 7,2 C 98 % 1018,3 hPa 0,0 l/m 0 min 0 min 0 W/m 0,0 km/h (0 Bft) 95,74 %
09.10.2020 07:26 9,3 C 8,3 C 7,8 C 98 % 1018,3 hPa 0,0 l/m 0 min 0 min 0 W/m 0,0 km/h (0 Bft) 95,74 %
09.10.2020 07:28 9,3 C 7,8 C 7,8 C 98 % 1018,2 hPa 0,0 l/m 0 min 0 min 0 W/m 0,0 km/h (0 Bft) 95,74 %
09.10.2020 07:30 9,2 C 7,8 C 7,8 C 98 % 1018,2 hPa 0,0 l/m 0 min 0 min 0 W/m 0,0 km/h (0 Bft) 95,74 %
09.10.2020 07:32 9,2 C 7,8 C 7,8 C 98 % 1018,3 hPa 0,0 l/m 0 min 0 min 0 W/m 0,0 km/h (0 Bft) 95,74 %
09.10.2020 07:34 9,2 C 7,8 C 7,8 C 98 % 1018,3 hPa 0,0 l/m 0 min 0 min 0 W/m 0,0 km/h (0 Bft) 95,65 %
09.10.2020 07:36 9,2 C 7,8 C 7,8 C 98 % 1018,3 hPa 0,0 l/m 0 min 0 min 0 W/m 0,0 km/h (0 Bft) 95,74 %
09.10.2020 07:38 9,2 C 7,8 C 7,8 C 98 % 1018,3 hPa 0,0 l/m 0 min 0 min 0 W/m 0,0 km/h (0 Bft) 95,74 %
09.10.2020 07:40 9,2 C 7,8 C 7,8 C 98 % 1018,3 hPa 0,0 l/m 0 min 0 min 0 W/m 0,0 km/h (0 Bft) 97,87 %
09.10.2020 07:42 9,1 C 7,8 C 7,8 C 98 % 1018,4 hPa 0,0 l/m 0 min 0 min 0 W/m 0,0 km/h (0 Bft) 100,00 %
09.10.2020 07:44 9,1 C 7,8 C 7,8 C 98 % 1018,4 hPa 0,0 l/m 0 min 0 min 0 W/m 0,0 km/h (0 Bft) 100,00 %
09.10.2020 07:46 9,1 C 7,8 C 7,8 C 98 % 1018,4 hPa 0,0 l/m 0 min 0 min 0 W/m 0,0 km/h (0 Bft) 95,65 %
09.10.2020 07:48 9,1 C 7,8 C 7,8 C 98 % 1018,4 hPa 0,0 l/m 0 min 0 min 0 W/m 0,0 km/h (0 Bft) 100,00 %
09.10.2020 07:50 9,1 C 7,8 C 7,8 C 98 % 1018,4 hPa 0,0 l/m 0 min 0 min 0 W/m 0,0 km/h (0 Bft) 97,87 %
09.10.2020 07:52 9,1 C 8,3 C 7,8 C 98 % 1018,5 hPa 0,0 l/m 0 min 0 min 0 W/m 0,0 km/h (0 Bft) 100,00 %
09.10.2020 07:54 9,1 C 8,3 C 7,8 C 98 % 1018,5 hPa 0,0 l/m 0 min 0 min 0 W/m 0,0 km/h (0 Bft) 100,00 %
09.10.2020 07:56 9,1 C 8,3 C 8,3 C 98 % 1018,5 hPa 0,0 l/m 0 min 0 min 1 W/m 0,0 km/h (0 Bft) 95,74 %
09.10.2020 07:58 9,1 C 8,3 C 8,3 C 98 % 1018,4 hPa 0,0 l/m 0 min 0 min 5 W/m 0,0 km/h (0 Bft) 100,00 %
09.10.2020 08:00 9,1 C 8,3 C 8,3 C 98 % 1018,4 hPa 0,0 l/m 0 min 0 min 5 W/m 0,0 km/h (0 Bft) 97,87 %
09.10.2020 08:02 9,1 C 8,3 C 8,3 C 98 % 1018,3 hPa 0,0 l/m 0 min 0 min 5 W/m 0,0 km/h (0 Bft) 95,74 %
09.10.2020 08:04 9,1 C 8,3 C 8,3 C 98 % 1018,3 hPa 0,0 l/m 0 min 0 min 7 W/m 0,0 km/h (0 Bft) 100,00 %
09.10.2020 08:06 9,1 C 8,3 C 8,3 C 98 % 1018,4 hPa 0,0 l/m 0 min 0 min 7 W/m 0,0 km/h (0 Bft) 97,87 %
09.10.2020 08:08 9,1 C 8,3 C 8,3 C 98 % 1018,3 hPa 0,0 l/m 0 min 0 min 7 W/m 0,0 km/h (0 Bft) 100,00 %
09.10.2020 08:10 9,1 C 8,9 C 8,9 C 98 % 1018,4 hPa 0,0 l/m 0 min 0 min 8 W/m 0,0 km/h (0 Bft) 100,00 %
09.10.2020 08:12 9,1 C 8,9 C 8,9 C 98 % 1018,3 hPa 0,0 l/m 0 min 0 min 10 W/m 0,0 km/h (0 Bft) 100,00 %
09.10.2020 08:14 9,1 C 8,9 C 8,9 C 98 % 1018,4 hPa 0,0 l/m 0 min 0 min 13 W/m 0,0 km/h (0 Bft) 97,92 %
09.10.2020 08:16 9,1 C 8,9 C 8,9 C 98 % 1018,4 hPa 0,2 l/m 0 min 0 min 14 W/m 0,0 km/h (0 Bft) 100,00 %
09.10.2020 08:18 9,1 C 8,9 C 8,9 C 98 % 1018,5 hPa 0,0 l/m 0 min 0 min 14 W/m 0,0 km/h (0 Bft) 97,92 %
09.10.2020 08:20 9,2 C 8,9 C 8,9 C 98 % 1018,5 hPa 0,0 l/m 0 min 0 min 17 W/m 0,0 km/h (0 Bft) 100,00 %
09.10.2020 08:22 9,2 C 9,4 C 9,4 C 98 % 1018,5 hPa 0,0 l/m 0 min 0 min 19 W/m 0,0 km/h (0 Bft) 100,00 %
09.10.2020 08:24 9,3 C 9,4 C 9,4 C 98 % 1018,4 hPa 0,0 l/m 0 min 0 min 21 W/m 0,0 km/h (0 Bft) 100,00 %
09.10.2020 08:26 9,3 C 9,4 C 9,4 C 98 % 1018,4 hPa 0,0 l/m 0 min 0 min 24 W/m 0,0 km/h (0 Bft) 100,00 %
09.10.2020 08:28 9,3 C 9,4 C 9,4 C 98 % 1018,3 hPa 0,0 l/m 0 min 0 min 23 W/m 0,0 km/h (0 Bft) 100,00 %
09.10.2020 08:30 9,4 C 9,4 C 9,4 C 98 % 1018,3 hPa 0,0 l/m 0 min 0 min 27 W/m 0,0 km/h (0 Bft) 100,00 %
09.10.2020 08:32 9,4 C 9,4 C 9,4 C 98 % 1018,4 hPa 0,0 l/m 0 min 0 min 28 W/m 0,0 km/h (0 Bft) 97,87 %
09.10.2020 08:34 9,4 C 9,4 C 9,4 C 98 % 1018,5 hPa 0,0 l/m 0 min 0 min 28 W/m 0,0 km/h (0 Bft) 100,00 %
09.10.2020 08:36 9,5 C 9,4 C 9,4 C 98 % 1018,6 hPa 0,0 l/m 0 min 0 min 31 W/m 0,0 km/h (0 Bft) 100,00 %
09.10.2020 08:38 9,6 C 9,4 C 9,4 C 99 % 1018,5 hPa 0,0 l/m 0 min 0 min 33 W/m 0,0 km/h (0 Bft) 97,87 %
09.10.2020 08:40 9,6 C 9,4 C 9,4 C 99 % 1018,5 hPa 0,0 l/m 0 min 0 min 39 W/m 0,0 km/h (0 Bft) 97,87 %
09.10.2020 08:42 9,7 C 9,4 C 9,4 C 99 % 1018,6 hPa 0,0 l/m 0 min 0 min 41 W/m 0,0 km/h (0 Bft) 100,00 %
09.10.2020 08:44 9,7 C 10,0 C 9,4 C 99 % 1018,6 hPa 0,0 l/m 0 min 0 min 39 W/m 0,0 km/h (0 Bft) 97,83 %
09.10.2020 08:46 9,7 C 10,0 C 9,4 C 99 % 1018,6 hPa 0,0 l/m 0 min 0 min 41 W/m 0,0 km/h (0 Bft) 95,74 %
09.10.2020 08:48 9,8 C 10,0 C 9,4 C 99 % 1018,6 hPa 0,0 l/m 0 min 0 min 46 W/m 0,0 km/h (0 Bft) 95,74 %
09.10.2020 08:50 9,8 C 10,0 C 10,0 C 99 % 1018,6 hPa 0,0 l/m 0 min 0 min 48 W/m 0,0 km/h (0 Bft) 97,87 %
09.10.2020 08:52 9,9 C 10,0 C 10,0 C 99 % 1018,6 hPa 0,0 l/m 0 min 0 min 46 W/m 0,0 km/h (0 Bft) 82,98 %
09.10.2020 08:54 9,9 C 10,0 C 10,0 C 99 % 1018,6 hPa 0,0 l/m 0 min 0 min 45 W/m 0,0 km/h (0 Bft) 89,36 %
09.10.2020 08:56 9,9 C 10,0 C 10,0 C 99 % 1018,6 hPa 0,0 l/m 0 min 0 min 44 W/m 0,0 km/h (0 Bft) 97,83 %
09.10.2020 08:58 10,0 C 10,0 C 10,0 C 99 % 1018,5 hPa 0,0 l/m 0 min 0 min 42 W/m 0,0 km/h (0 Bft) 97,87 %
09.10.2020 09:00 10,1 C 10,0 C 10,0 C 99 % 1018,5 hPa 0,0 l/m 0 min 0 min 40 W/m 0,0 km/h (0 Bft) 97,87 %
09.10.2020 09:02 10,1 C 10,0 C 10,0 C 99 % 1018,5 hPa 0,0 l/m 0 min 0 min 42 W/m 0,0 km/h (0 Bft) 97,87 %
09.10.2020 09:04 10,1 C 10,0 C 10,0 C 99 % 1018,5 hPa 0,0 l/m 0 min 0 min 45 W/m 0,0 km/h (0 Bft) 95,74 %
09.10.2020 09:06 10,1 C 10,0 C 9,4 C 99 % 1018,5 hPa 0,0 l/m 0 min 0 min 54 W/m 0,0 km/h (0 Bft) 97,87 %
09.10.2020 09:08 10,2 C 10,0 C 10,0 C 99 % 1018,6 hPa 0,0 l/m 0 min 0 min 69 W/m 0,0 km/h (0 Bft) 97,83 %
09.10.2020 09:10 10,2 C 10,6 C 10,0 C 99 % 1018,6 hPa 0,0 l/m 0 min 0 min 68 W/m 0,0 km/h (0 Bft) 97,87 %
09.10.2020 09:12 10,2 C 10,6 C 10,0 C 99 % 1018,7 hPa 0,0 l/m 0 min 0 min 63 W/m 0,0 km/h (0 Bft) 95,74 %
09.10.2020 09:14 10,3 C 10,6 C 10,0 C 99 % 1018,7 hPa 0,0 l/m 0 min 0 min 57 W/m 0,0 km/h (0 Bft) 95,74 %
09.10.2020 09:16 10,3 C 10,6 C 10,0 C 99 % 1018,7 hPa 0,0 l/m 0 min 0 min 51 W/m 0,0 km/h (0 Bft) 97,87 %
09.10.2020 09:18 10,3 C 10,6 C 10,0 C 99 % 1018,7 hPa 0,0 l/m 0 min 0 min 54 W/m 0,0 km/h (0 Bft) 97,87 %
09.10.2020 09:20 10,4 C 10,6 C 10,6 C 99 % 1018,7 hPa 0,0 l/m 0 min 0 min 60 W/m 0,0 km/h (0 Bft) 97,83 %
09.10.2020 09:22 10,4 C 10,6 C 10,6 C 99 % 1018,7 hPa 0,0 l/m 0 min 0 min 61 W/m 0,0 km/h (0 Bft) 97,87 %
09.10.2020 09:24 10,5 C 10,6 C 10,6 C 99 % 1018,7 hPa 0,0 l/m 0 min 0 min 62 W/m 0,0 km/h (0 Bft) 97,87 %
09.10.2020 09:26 10,6 C 10,6 C 10,6 C 99 % 1018,7 hPa 0,0 l/m 0 min 0 min 62 W/m 0,0 km/h (0 Bft) 97,87 %
09.10.2020 09:28 10,6 C 11,1 C 10,6 C 99 % 1018,7 hPa 0,0 l/m 0 min 0 min 61 W/m 0,0 km/h (0 Bft) 93,62 %
09.10.2020 09:30 10,6 C 11,1 C 10,6 C 99 % 1018,7 hPa 0,0 l/m 0 min 0 min 62 W/m 0,0 km/h (0 Bft) 97,83 %
09.10.2020 09:32 10,7 C 11,1 C 10,6 C 99 % 1018,7 hPa 0,0 l/m 0 min 0 min 67 W/m 0,0 km/h (0 Bft) 97,87 %
09.10.2020 09:34 10,7 C 11,1 C 10,6 C 99 % 1018,7 hPa 0,0 l/m 0 min 0 min 72 W/m 0,0 km/h (0 Bft) 97,87 %
09.10.2020 09:36 10,8 C 11,1 C 10,6 C 99 % 1018,7 hPa 0,0 l/m 0 min 0 min 82 W/m 0,0 km/h (0 Bft) 100,00 %
09.10.2020 09:38 10,8 C 11,1 C 10,6 C 99 % 1018,7 hPa 0,0 l/m 0 min 0 min 88 W/m 0,0 km/h (0 Bft) 95,74 %
09.10.2020 09:40 10,9 C 11,1 C 10,6 C 99 % 1018,7 hPa 0,0 l/m 0 min 0 min 92 W/m 0,0 km/h (0 Bft) 97,87 %
09.10.2020 09:42 10,9 C 11,1 C 10,6 C 99 % 1018,7 hPa 0,0 l/m 0 min 0 min 94 W/m 0,0 km/h (0 Bft) 97,87 %
09.10.2020 09:44 11,0 C 11,1 C 10,6 C 99 % 1018,7 hPa 0,0 l/m 0 min 0 min 91 W/m 0,0 km/h (0 Bft) 97,83 %
09.10.2020 09:46 11,1 C 11,1 C 10,6 C 99 % 1018,7 hPa 0,0 l/m 0 min 0 min 91 W/m 0,0 km/h (0 Bft) 97,87 %
09.10.2020 09:48 11,1 C 11,1 C 10,6 C 99 % 1018,8 hPa 0,0 l/m 0 min 0 min 96 W/m 0,0 km/h (0 Bft) 97,87 %
09.10.2020 09:50 11,2 C 11,7 C 11,1 C 100 % 1018,7 hPa 0,0 l/m 0 min 0 min 94 W/m 0,0 km/h (0 Bft) 97,87 %
09.10.2020 09:52 11,2 C 11,7 C 11,1 C 100 % 1018,7 hPa 0,0 l/m 0 min 0 min 97 W/m 0,0 km/h (0 Bft) 95,74 %
09.10.2020 09:54 11,3 C 11,7 C 11,1 C 100 % 1018,7 hPa 0,0 l/m 0 min 0 min 105 W/m 0,0 km/h (0 Bft) 93,48 %
09.10.2020 09:56 11,3 C 11,7 C 11,1 C 100 % 1018,7 hPa 0,0 l/m 0 min 0 min 108 W/m 0,0 km/h (0 Bft) 97,87 %
09.10.2020 09:58 11,3 C 11,7 C 11,1 C 99 % 1018,7 hPa 0,0 l/m 0 min 0 min 106 W/m 0,0 km/h (0 Bft) 97,87 %
09.10.2020 10:00 11,4 C 11,7 C 11,1 C 99 % 1018,8 hPa 0,0 l/m 0 min 0 min 104 W/m 0,0 km/h (0 Bft) 97,87 %
09.10.2020 10:02 11,5 C 11,7 C 11,1 C 99 % 1018,7 hPa 0,0 l/m 0 min 0 min 100 W/m 0,0 km/h (0 Bft) 97,87 %
09.10.2020 10:04 11,6 C 11,7 C 11,1 C 100 % 1018,7 hPa 0,0 l/m 0 min 0 min 100 W/m 0,0 km/h (0 Bft) 97,87 %
09.10.2020 10:06 11,6 C 11,7 C 11,1 C 100 % 1018,7 hPa 0,0 l/m 0 min 0 min 104 W/m 0,0 km/h (0 Bft) 95,65 %
09.10.2020 10:08 11,7 C 11,7 C 11,1 C 100 % 1018,7 hPa 0,0 l/m 0 min 0 min 106 W/m 0,0 km/h (0 Bft) 97,87 %
09.10.2020 10:10 11,7 C 12,2 C 11,1 C 100 % 1018,7 hPa 0,0 l/m 0 min 0 min 111 W/m 0,0 km/h (0 Bft) 97,87 %
09.10.2020 10:12 11,8 C 12,2 C 11,1 C 100 % 1018,7 hPa 0,0 l/m 0 min 0 min 112 W/m 0,0 km/h (0 Bft) 93,62 %
09.10.2020 10:14 11,8 C 12,2 C 11,7 C 100 % 1018,7 hPa 0,0 l/m 0 min 0 min 113 W/m 0,0 km/h (0 Bft) 97,87 %
09.10.2020 10:16 11,8 C 12,2 C 11,7 C 100 % 1018,8 hPa 0,0 l/m 0 min 0 min 114 W/m 0,0 km/h (0 Bft) 97,87 %
09.10.2020 10:18 11,9 C 12,2 C 11,7 C 100 % 1018,7 hPa 0,0 l/m 0 min 0 min 118 W/m 0,0 km/h (0 Bft) 97,83 %
09.10.2020 10:20 12,0 C 12,2 C 11,7 C 100 % 1018,7 hPa 0,0 l/m 0 min 0 min 122 W/m 0,0 km/h (0 Bft) 100,00 %
09.10.2020 10:22 12,0 C 12,8 C 11,7 C 100 % 1018,7 hPa 0,0 l/m 0 min 0 min 130 W/m 0,0 km/h (0 Bft) 100,00 %
09.10.2020 10:24 12,1 C 12,8 C 11,7 C 100 % 1018,6 hPa 0,0 l/m 0 min 0 min 135 W/m 3,2 km/h (1 Bft) 97,87 %
09.10.2020 10:26 12,1 C 12,8 C 11,7 C 100 % 1018,6 hPa 0,0 l/m 0 min 0 min 140 W/m 3,2 km/h (1 Bft) 100,00 %
09.10.2020 10:28 12,1 C 12,8 C 11,7 C 100 % 1018,6 hPa 0,0 l/m 0 min 0 min 141 W/m 3,2 km/h (1 Bft) 97,87 %
09.10.2020 10:30 12,2 C 12,8 C 11,7 C 100 % 1018,6 hPa 0,0 l/m 0 min 0 min 141 W/m 3,2 km/h (1 Bft) 100,00 %
09.10.2020 10:32 12,2 C 12,8 C 11,7 C 100 % 1018,7 hPa 0,0 l/m 0 min 0 min 148 W/m 0,0 km/h (0 Bft) 100,00 %
09.10.2020 10:34 12,2 C 12,8 C 11,7 C 100 % 1018,7 hPa 0,0 l/m 0 min 0 min 154 W/m 0,0 km/h (0 Bft) 100,00 %
09.10.2020 10:36 12,3 C 13,3 C 11,7 C 100 % 1018,6 hPa 0,0 l/m 0 min 0 min 168 W/m 0,0 km/h (0 Bft) 100,00 %
09.10.2020 10:38 12,3 C 13,3 C 11,7 C 100 % 1018,6 hPa 0,0 l/m 0 min 0 min 182 W/m 6,4 km/h (2 Bft) 100,00 %
09.10.2020 10:40 12,3 C 13,3 C 11,7 C 100 % 1018,7 hPa 0,0 l/m 0 min 0 min 180 W/m 0,0 km/h (0 Bft) 100,00 %
09.10.2020 10:42 12,3 C 13,9 C 12,2 C 100 % 1018,7 hPa 0,0 l/m 0 min 0 min 176 W/m 0,0 km/h (0 Bft) 97,87 %
09.10.2020 10:44 12,3 C 13,9 C 12,2 C 100 % 1018,6 hPa 0,0 l/m 0 min 0 min 171 W/m 0,0 km/h (0 Bft) 100,00 %
09.10.2020 10:46 12,4 C 13,3 C 12,2 C 100 % 1018,7 hPa 0,0 l/m 0 min 0 min 172 W/m 0,0 km/h (0 Bft) 100,00 %
09.10.2020 10:48 12,4 C 13,9 C 12,2 C 100 % 1018,6 hPa 0,0 l/m 0 min 0 min 182 W/m 0,0 km/h (0 Bft) 97,87 %
09.10.2020 10:50 12,5 C 13,9 C 12,2 C 100 % 1018,7 hPa 0,0 l/m 0 min 0 min 184 W/m 3,2 km/h (1 Bft) 97,87 %
09.10.2020 10:52 12,5 C 13,9 C 12,2 C 100 % 1018,7 hPa 0,0 l/m 0 min 0 min 185 W/m 3,2 km/h (1 Bft) 97,83 %
09.10.2020 10:54 12,6 C 13,9 C 12,2 C 100 % 1018,6 hPa 0,0 l/m 0 min 0 min 190 W/m 3,2 km/h (1 Bft) 95,74 %
09.10.2020 10:56 12,6 C 13,9 C 12,2 C 100 % 1018,7 hPa 0,0 l/m 0 min 0 min 199 W/m 6,4 km/h (2 Bft) 97,87 %
09.10.2020 10:58 12,6 C 13,9 C 12,2 C 100 % 1018,6 hPa 0,0 l/m 2 min 0 min 208 W/m 0,0 km/h (0 Bft) 95,74 %
09.10.2020 11:00 12,6 C 13,9 C 12,2 C 100 % 1018,6 hPa 0,0 l/m 2 min 0 min 230 W/m 6,4 km/h (2 Bft) 97,87 %
09.10.2020 11:02 12,7 C 13,9 C 12,2 C 100 % 1018,5 hPa 0,0 l/m 2 min 0 min 214 W/m 0,0 km/h (0 Bft) 97,87 %
09.10.2020 11:04 12,7 C 14,4 C 12,2 C 100 % 1018,5 hPa 0,0 l/m 2 min 0 min 220 W/m 0,0 km/h (0 Bft) 95,65 %
09.10.2020 11:06 12,7 C 14,4 C 12,8 C 100 % 1018,5 hPa 0,0 l/m 2 min 0 min 230 W/m 0,0 km/h (0 Bft) 97,87 %
09.10.2020 11:08 12,7 C 14,4 C 12,8 C 100 % 1018,5 hPa 0,0 l/m 2 min 0 min 227 W/m 0,0 km/h (0 Bft) 97,87 %
09.10.2020 11:10 12,8 C 14,4 C 12,2 C 100 % 1018,5 hPa 0,0 l/m 2 min 0 min 234 W/m 0,0 km/h (0 Bft) 97,87 %
09.10.2020 11:12 12,8 C 14,4 C 12,2 C 100 % 1018,4 hPa 0,0 l/m 2 min 0 min 251 W/m 6,4 km/h (2 Bft) 97,87 %
09.10.2020 11:14 12,8 C 14,4 C 12,2 C 100 % 1018,4 hPa 0,0 l/m 2 min 0 min 248 W/m 6,4 km/h (2 Bft) 97,87 %
09.10.2020 11:16 12,8 C 14,4 C 12,8 C 100 % 1018,5 hPa 0,0 l/m 2 min 0 min 224 W/m 0,0 km/h (0 Bft) 97,83 %
09.10.2020 11:18 12,8 C 14,4 C 12,2 C 100 % 1018,5 hPa 0,0 l/m 2 min 0 min 236 W/m 6,4 km/h (2 Bft) 95,74 %
09.10.2020 11:20 12,8 C 14,4 C 12,8 C 100 % 1018,5 hPa 0,0 l/m 2 min 0 min 233 W/m 0,0 km/h (0 Bft) 97,87 %
09.10.2020 11:22 12,9 C 15,0 C 12,8 C 100 % 1018,5 hPa 0,0 l/m 2 min 0 min 230 W/m 3,2 km/h (1 Bft) 97,87 %
09.10.2020 11:24 12,9 C 14,4 C 12,8 C 100 % 1018,5 hPa 0,0 l/m 2 min 0 min 230 W/m 3,2 km/h (1 Bft) 95,74 %
09.10.2020 11:26 12,9 C 14,4 C 12,8 C 100 % 1018,5 hPa 0,0 l/m 0 min 0 min 225 W/m 12,9 km/h (3 Bft) 97,87 %
09.10.2020 11:28 13,0 C 14,4 C 12,8 C 100 % 1018,5 hPa 0,0 l/m 0 min 0 min 214 W/m 3,2 km/h (1 Bft) 95,65 %
09.10.2020 11:30 13,1 C 14,4 C 12,8 C 100 % 1018,5 hPa 0,0 l/m 0 min 0 min 218 W/m 6,4 km/h (2 Bft) 97,87 %
09.10.2020 11:32 13,1 C 14,4 C 12,8 C 100 % 1018,5 hPa 0,0 l/m 0 min 0 min 227 W/m 6,4 km/h (2 Bft) 95,74 %
09.10.2020 11:34 13,1 C 14,4 C 12,8 C 100 % 1018,5 hPa 0,0 l/m 2 min 0 min 242 W/m 3,2 km/h (1 Bft) 97,87 %
09.10.2020 11:36 13,1 C 14,4 C 12,8 C 100 % 1018,5 hPa 0,0 l/m 2 min 0 min 234 W/m 6,4 km/h (2 Bft) 95,74 %
09.10.2020 11:38 13,1 C 14,4 C 12,8 C 100 % 1018,5 hPa 0,0 l/m 2 min 0 min 238 W/m 3,2 km/h (1 Bft) 97,83 %
09.10.2020 11:40 13,1 C 14,4 C 12,8 C 100 % 1018,5 hPa 0,0 l/m 2 min 0 min 259 W/m 6,4 km/h (2 Bft) 97,87 %
09.10.2020 11:42 13,1 C 14,4 C 12,8 C 100 % 1018,5 hPa 0,0 l/m 2 min 0 min 276 W/m 9,7 km/h (2 Bft) 97,87 %
09.10.2020 11:44 13,1 C 15,0 C 12,8 C 100 % 1018,5 hPa 0,0 l/m 2 min 0 min 291 W/m 6,4 km/h (2 Bft) 100,00 %
09.10.2020 11:46 13,2 C 15,0 C 12,8 C 100 % 1018,5 hPa 0,0 l/m 2 min 0 min 316 W/m 0,0 km/h (0 Bft) 100,00 %
09.10.2020 11:48 13,2 C 15,0 C 12,8 C 100 % 1018,5 hPa 0,0 l/m 2 min 0 min 273 W/m 0,0 km/h (0 Bft) 97,87 %
09.10.2020 11:50 13,2 C 15,0 C 12,8 C 100 % 1018,4 hPa 0,0 l/m 2 min 0 min 285 W/m 0,0 km/h (0 Bft) 100,00 %
09.10.2020 11:52 13,2 C 15,0 C 12,8 C 100 % 1018,4 hPa 0,0 l/m 0 min 0 min 240 W/m 0,0 km/h (0 Bft) 97,87 %
09.10.2020 11:54 13,3 C 15,6 C 12,8 C 100 % 1018,3 hPa 0,0 l/m 0 min 0 min 235 W/m 0,0 km/h (0 Bft) 100,00 %
09.10.2020 11:56 13,3 C 15,6 C 12,8 C 100 % 1018,4 hPa 0,0 l/m 0 min 0 min 234 W/m 0,0 km/h (0 Bft) 95,74 %
09.10.2020 11:58 13,3 C 15,6 C 12,8 C 100 % 1018,4 hPa 0,0 l/m 2 min 0 min 270 W/m 6,4 km/h (2 Bft) 91,49 %
09.10.2020 12:00 13,4 C 16,1 C 12,8 C 100 % 1018,4 hPa 0,0 l/m 2 min 0 min 286 W/m 3,2 km/h (1 Bft) 95,74 %
09.10.2020 12:02 13,5 C 15,6 C 12,8 C 100 % 1018,4 hPa 0,0 l/m 2 min 0 min 251 W/m 6,4 km/h (2 Bft) 95,65 %
09.10.2020 12:04 13,6 C 16,7 C 12,8 C 100 % 1018,4 hPa 0,0 l/m 2 min 0 min 334 W/m 6,4 km/h (2 Bft) 95,74 %
09.10.2020 12:07 13,6 C 16,1 C 12,8 C 100 % 1018,3 hPa 0,0 l/m 3 min 0 min 327 W/m 6,4 km/h (2 Bft) 95,71 %
09.10.2020 12:08 13,6 C 16,7 C 12,8 C 100 % 1018,3 hPa 0,0 l/m 1 min 0 min 309 W/m 3,2 km/h (1 Bft) 95,83 %
09.10.2020 12:10 13,7 C 16,7 C 12,8 C 100 % 1018,2 hPa 0,0 l/m 2 min 0 min 298 W/m 3,2 km/h (1 Bft) 95,74 %
09.10.2020 12:12 13,7 C 18,3 C 12,8 C 100 % 1018,3 hPa 0,0 l/m 2 min 0 min 288 W/m 12,9 km/h (3 Bft) 95,74 %
09.10.2020 12:14 13,8 C 20,6 C 13,3 C 100 % 1018,3 hPa 0,0 l/m 2 min 0 min 567 W/m 16,1 km/h (3 Bft) 93,48 %
09.10.2020 12:16 13,9 C 20,6 C 13,3 C 100 % 1018,3 hPa 0,0 l/m 2 min 0 min 519 W/m 6,4 km/h (2 Bft) 95,74 %
09.10.2020 12:18 14,1 C 20,0 C 13,3 C 100 % 1018,3 hPa 0,0 l/m 2 min 0 min 681 W/m 6,4 km/h (2 Bft) 95,74 %
09.10.2020 12:20 14,1 C 18,3 C 13,3 C 100 % 1018,3 hPa 0,0 l/m 2 min 0 min 322 W/m 12,9 km/h (3 Bft) 95,74 %
09.10.2020 12:22 14,2 C 18,3 C 13,3 C 100 % 1018,2 hPa 0,0 l/m 2 min 0 min 319 W/m 6,4 km/h (2 Bft) 93,62 %
09.10.2020 12:24 14,3 C 18,3 C 13,3 C 100 % 1018,2 hPa 0,0 l/m 2 min 0 min 312 W/m 12,9 km/h (3 Bft) 95,74 %
09.10.2020 12:26 14,3 C 17,2 C 13,3 C 100 % 1018,2 hPa 0,0 l/m 2 min 0 min 264 W/m 12,9 km/h (3 Bft) 93,48 %
09.10.2020 12:28 14,3 C 17,8 C 13,3 C 100 % 1018,2 hPa 0,0 l/m 2 min 0 min 279 W/m 6,4 km/h (2 Bft) 95,74 %
09.10.2020 12:30 14,3 C 17,2 C 13,3 C 100 % 1018,2 hPa 0,0 l/m 2 min 0 min 263 W/m 0,0 km/h (0 Bft) 91,49 %
09.10.2020 12:32 14,3 C 17,2 C 13,3 C 100 % 1018,2 hPa 0,0 l/m 0 min 0 min 247 W/m 6,4 km/h (2 Bft) 95,74 %
09.10.2020 12:34 14,3 C 16,7 C 13,3 C 100 % 1018,2 hPa 0,0 l/m 0 min 0 min 215 W/m 12,9 km/h (3 Bft) 97,87 %
09.10.2020 12:36 14,3 C 16,1 C 13,3 C 99 % 1018,2 hPa 0,0 l/m 0 min 0 min 173 W/m 6,4 km/h (2 Bft) 97,87 %
09.10.2020 12:38 14,3 C 15,6 C 13,3 C 99 % 1018,2 hPa 0,0 l/m 0 min 0 min 146 W/m 12,9 km/h (3 Bft) 97,83 %
09.10.2020 12:40 14,3 C 15,6 C 13,3 C 99 % 1018,2 hPa 0,0 l/m 0 min 0 min 149 W/m 12,9 km/h (3 Bft) 97,87 %
09.10.2020 12:42 14,3 C 15,6 C 12,8 C 99 % 1018,2 hPa 0,0 l/m 0 min 0 min 141 W/m 12,9 km/h (3 Bft) 95,74 %
09.10.2020 12:44 14,3 C 15,0 C 12,8 C 98 % 1018,2 hPa 0,0 l/m 0 min 0 min 115 W/m 3,2 km/h (1 Bft) 97,87 %
09.10.2020 12:46 14,3 C 15,0 C 12,8 C 98 % 1018,2 hPa 0,0 l/m 0 min 0 min 107 W/m 12,9 km/h (3 Bft) 97,87 %
09.10.2020 12:48 14,3 C 15,0 C 12,8 C 98 % 1018,2 hPa 0,0 l/m 0 min 0 min 118 W/m 3,2 km/h (1 Bft) 97,83 %
09.10.2020 12:50 14,3 C 15,0 C 12,8 C 97 % 1018,2 hPa 0,0 l/m 0 min 0 min 132 W/m 0,0 km/h (0 Bft) 97,87 %
09.10.2020 12:52 14,4 C 15,0 C 12,8 C 97 % 1018,2 hPa 0,0 l/m 0 min 0 min 129 W/m 0,0 km/h (0 Bft) 93,62 %
09.10.2020 12:54 14,4 C 15,0 C 12,8 C 96 % 1018,1 hPa 0,0 l/m 0 min 0 min 115 W/m 0,0 km/h (0 Bft) 97,87 %
09.10.2020 12:56 14,4 C 15,0 C 12,8 C 96 % 1018,1 hPa 0,0 l/m 0 min 0 min 109 W/m 0,0 km/h (0 Bft) 95,74 %
09.10.2020 12:58 14,5 C 14,4 C 12,8 C 96 % 1018,2 hPa 0,0 l/m 0 min 0 min 103 W/m 0,0 km/h (0 Bft) 97,87 %
09.10.2020 13:00 14,5 C 14,4 C 12,8 C 95 % 1018,2 hPa 0,0 l/m 0 min 0 min 106 W/m 0,0 km/h (0 Bft) 97,83 %
09.10.2020 13:02 14,6 C 15,0 C 12,8 C 95 % 1018,1 hPa 0,0 l/m 0 min 0 min 110 W/m 0,0 km/h (0 Bft) 95,74 %
09.10.2020 13:04 14,6 C 14,4 C 12,8 C 94 % 1018,1 hPa 0,0 l/m 0 min 0 min 106 W/m 0,0 km/h (0 Bft) 97,87 %
09.10.2020 13:06 14,6 C 14,4 C 12,8 C 94 % 1018,1 hPa 0,0 l/m 0 min 0 min 106 W/m 0,0 km/h (0 Bft) 97,87 %
09.10.2020 13:08 14,6 C 14,4 C 12,8 C 93 % 1018,0 hPa 0,0 l/m 0 min 0 min 119 W/m 0,0 km/h (0 Bft) 95,74 %
09.10.2020 13:10 14,6 C 15,0 C 12,8 C 93 % 1018,0 hPa 0,0 l/m 0 min 0 min 118 W/m 0,0 km/h (0 Bft) 97,87 %
09.10.2020 13:12 14,6 C 15,0 C 12,8 C 93 % 1018,1 hPa 0,0 l/m 0 min 0 min 120 W/m 6,4 km/h (2 Bft) 97,83 %
09.10.2020 13:14 14,6 C 15,0 C 12,8 C 92 % 1018,0 hPa 0,0 l/m 0 min 0 min 118 W/m 6,4 km/h (2 Bft) 100,00 %
09.10.2020 13:16 14,6 C 15,0 C 12,8 C 92 % 1018,0 hPa 0,0 l/m 0 min 0 min 128 W/m 6,4 km/h (2 Bft) 100,00 %
09.10.2020 13:18 14,7 C 15,0 C 12,8 C 92 % 1017,9 hPa 0,0 l/m 0 min 0 min 146 W/m 6,4 km/h (2 Bft) 100,00 %
09.10.2020 13:20 14,7 C 15,6 C 12,8 C 91 % 1017,9 hPa 0,0 l/m 0 min 0 min 154 W/m 0,0 km/h (0 Bft) 100,00 %
09.10.2020 13:22 14,7 C 15,6 C 12,8 C 91 % 1017,9 hPa 0,0 l/m 0 min 0 min 169 W/m 0,0 km/h (0 Bft) 97,87 %
09.10.2020 13:24 14,8 C 15,6 C 12,8 C 91 % 1017,9 hPa 0,0 l/m 0 min 0 min 171 W/m 0,0 km/h (0 Bft) 100,00 %
09.10.2020 13:26 14,8 C 15,6 C 13,3 C 91 % 1017,9 hPa 0,0 l/m 0 min 0 min 183 W/m 0,0 km/h (0 Bft) 97,87 %
09.10.2020 13:28 14,8 C 16,1 C 13,3 C 91 % 1017,9 hPa 0,0 l/m 0 min 0 min 194 W/m 6,4 km/h (2 Bft) 97,87 %
09.10.2020 13:30 14,8 C 15,6 C 13,3 C 91 % 1017,9 hPa 0,0 l/m 0 min 0 min 207 W/m 12,9 km/h (3 Bft) 97,87 %
09.10.2020 13:32 14,9 C 16,1 C 13,3 C 90 % 1017,9 hPa 0,0 l/m 0 min 0 min 213 W/m 6,4 km/h (2 Bft) 95,74 %
09.10.2020 13:34 14,9 C 16,1 C 13,3 C 90 % 1017,9 hPa 0,0 l/m 0 min 0 min 232 W/m 3,2 km/h (1 Bft) 97,83 %
09.10.2020 13:36 14,9 C 16,7 C 13,3 C 90 % 1017,9 hPa 0,0 l/m 0 min 0 min 200 W/m 0,0 km/h (0 Bft) 97,87 %
09.10.2020 13:38 15,0 C 16,7 C 13,3 C 90 % 1017,9 hPa 0,0 l/m 0 min 0 min 232 W/m 3,2 km/h (1 Bft) 93,62 %
09.10.2020 13:40 15,1 C 16,7 C 13,3 C 90 % 1017,9 hPa 0,0 l/m 0 min 0 min 201 W/m 9,7 km/h (2 Bft) 97,87 %
09.10.2020 13:42 15,1 C 16,7 C 13,3 C 90 % 1017,8 hPa 0,0 l/m 0 min 0 min 194 W/m 3,2 km/h (1 Bft) 95,74 %
09.10.2020 13:44 15,2 C 16,7 C 13,3 C 90 % 1017,8 hPa 0,0 l/m 0 min 0 min 206 W/m 9,7 km/h (2 Bft) 95,74 %
09.10.2020 13:46 15,2 C 16,7 C 13,3 C 90 % 1017,9 hPa 0,0 l/m 0 min 0 min 230 W/m 3,2 km/h (1 Bft) 97,83 %
09.10.2020 13:48 15,2 C 16,7 C 13,3 C 89 % 1017,8 hPa 0,0 l/m 2 min 0 min 266 W/m 9,7 km/h (2 Bft) 97,87 %
09.10.2020 13:50 15,3 C 17,2 C 13,9 C 89 % 1017,8 hPa 0,0 l/m 2 min 0 min 279 W/m 6,4 km/h (2 Bft) 97,87 %
09.10.2020 13:52 15,3 C 17,2 C 13,9 C 89 % 1017,8 hPa 0,0 l/m 2 min 0 min 279 W/m 9,7 km/h (2 Bft) 95,74 %
09.10.2020 13:54 15,3 C 17,8 C 13,3 C 89 % 1017,8 hPa 0,0 l/m 2 min 0 min 298 W/m 6,4 km/h (2 Bft) 97,87 %
09.10.2020 13:56 15,4 C 18,9 C 13,9 C 88 % 1017,8 hPa 0,0 l/m 2 min 0 min 291 W/m 6,4 km/h (2 Bft) 97,87 %
09.10.2020 13:58 15,4 C 21,7 C 13,9 C 88 % 1017,8 hPa 0,0 l/m 2 min 0 min 678 W/m 6,4 km/h (2 Bft) 97,83 %
09.10.2020 14:00 15,6 C 22,8 C 13,9 C 89 % 1017,8 hPa 0,0 l/m 2 min 0 min 716 W/m 0,0 km/h (0 Bft) 97,87 %
09.10.2020 14:02 15,7 C 23,3 C 13,9 C 89 % 1017,8 hPa 0,0 l/m 2 min 0 min 721 W/m 9,7 km/h (2 Bft) 97,87 %
09.10.2020 14:04 15,7 C 23,3 C 14,4 C 89 % 1017,8 hPa 0,0 l/m 2 min 0 min 533 W/m 12,9 km/h (3 Bft) 100,00 %
09.10.2020 14:06 15,8 C 21,1 C 13,9 C 87 % 1017,7 hPa 0,0 l/m 2 min 0 min 627 W/m 12,9 km/h (3 Bft) 100,00 %
09.10.2020 14:08 15,8 C 19,4 C 13,9 C 87 % 1017,8 hPa 0,0 l/m 2 min 0 min 287 W/m 19,3 km/h (3 Bft) 100,00 %
09.10.2020 14:10 15,9 C 18,9 C 13,9 C 85 % 1017,7 hPa 0,0 l/m 2 min 0 min 418 W/m 12,9 km/h (3 Bft) 100,00 %
09.10.2020 14:12 15,9 C 18,3 C 13,9 C 84 % 1017,8 hPa 0,0 l/m 0 min 0 min 247 W/m 12,9 km/h (3 Bft) 98,28 %
09.10.2020 14:14 15,9 C 17,8 C 13,9 C 84 % 1017,7 hPa 0,0 l/m 0 min 0 min 197 W/m 6,4 km/h (2 Bft) 97,14 %
09.10.2020 14:16 16,0 C 17,8 C 13,9 C 84 % 1017,8 hPa 0,0 l/m 0 min 0 min 205 W/m 3,2 km/h (1 Bft) 96,61 %
09.10.2020 14:18 16,1 C 17,2 C 13,9 C 85 % 1017,7 hPa 0,0 l/m 0 min 0 min 214 W/m 19,3 km/h (3 Bft) 97,87 %
09.10.2020 14:20 16,1 C 18,3 C 13,9 C 84 % 1017,8 hPa 0,0 l/m 2 min 0 min 254 W/m 16,1 km/h (3 Bft) 97,87 %
09.10.2020 14:22 16,1 C 19,4 C 13,9 C 82 % 1017,7 hPa 0,0 l/m 2 min 0 min 366 W/m 6,4 km/h (2 Bft) 91,43 %
09.10.2020 14:24 16,2 C 18,9 C 13,9 C 82 % 1017,7 hPa 0,0 l/m 2 min 0 min 404 W/m 12,9 km/h (3 Bft) 98,28 %
09.10.2020 14:26 16,2 C 17,8 C 13,9 C 81 % 1017,7 hPa 0,0 l/m 0 min 0 min 227 W/m 6,4 km/h (2 Bft) 95,74 %
09.10.2020 14:28 16,2 C 17,2 C 13,9 C 80 % 1017,7 hPa 0,0 l/m 0 min 0 min 235 W/m 19,3 km/h (3 Bft) 97,14 %
09.10.2020 14:30 16,3 C 17,2 C 13,9 C 78 % 1017,6 hPa 0,0 l/m 2 min 0 min 291 W/m 12,9 km/h (3 Bft) 98,31 %
09.10.2020 14:32 16,3 C 17,2 C 13,3 C 78 % 1017,6 hPa 0,0 l/m 0 min 0 min 236 W/m 16,1 km/h (3 Bft) 95,74 %
09.10.2020 14:34 16,3 C 16,7 C 13,9 C 78 % 1017,7 hPa 0,0 l/m 0 min 0 min 211 W/m 12,9 km/h (3 Bft) 97,83 %
09.10.2020 14:36 16,3 C 16,7 C 13,3 C 78 % 1017,6 hPa 0,0 l/m 0 min 0 min 175 W/m 12,9 km/h (3 Bft) 100,00 %
09.10.2020 14:38 16,3 C 16,7 C 13,3 C 78 % 1017,7 hPa 0,0 l/m 0 min 0 min 162 W/m 12,9 km/h (3 Bft) 96,61 %
09.10.2020 14:40 16,3 C 16,7 C 13,3 C 78 % 1017,6 hPa 0,0 l/m 0 min 0 min 154 W/m 6,4 km/h (2 Bft) 97,87 %
09.10.2020 14:42 16,3 C 16,1 C 13,3 C 77 % 1017,6 hPa 0,0 l/m 0 min 0 min 151 W/m 9,7 km/h (2 Bft) 95,74 %
09.10.2020 14:44 16,2 C 16,1 C 13,3 C 75 % 1017,7 hPa 0,0 l/m 0 min 0 min 119 W/m 12,9 km/h (3 Bft) 97,87 %
09.10.2020 14:46 16,2 C 15,6 C 13,3 C 72 % 1017,6 hPa 0,0 l/m 0 min 0 min 109 W/m 16,1 km/h (3 Bft) 95,65 %
09.10.2020 14:48 16,1 C 15,6 C 12,8 C 72 % 1017,6 hPa 0,0 l/m 0 min 0 min 105 W/m 6,4 km/h (2 Bft) 95,74 %
09.10.2020 14:50 16,1 C 15,6 C 12,8 C 73 % 1017,5 hPa 0,0 l/m 0 min 0 min 102 W/m 6,4 km/h (2 Bft) 97,14 %
09.10.2020 14:52 15,9 C 15,0 C 12,8 C 73 % 1017,5 hPa 0,0 l/m 0 min 0 min 112 W/m 19,3 km/h (3 Bft) 100,00 %
09.10.2020 14:54 15,9 C 15,0 C 12,8 C 72 % 1017,5 hPa 0,0 l/m 0 min 0 min 107 W/m 16,1 km/h (3 Bft) 100,00 %
09.10.2020 14:56 15,9 C 15,0 C 12,8 C 72 % 1017,5 hPa 0,0 l/m 0 min 0 min 103 W/m 9,7 km/h (2 Bft) 97,83 %
09.10.2020 14:58 15,8 C 15,0 C 12,8 C 71 % 1017,5 hPa 0,0 l/m 0 min 0 min 109 W/m 12,9 km/h (3 Bft) 100,00 %
09.10.2020 15:00 15,8 C 15,0 C 12,8 C 72 % 1017,5 hPa 0,0 l/m 0 min 0 min 116 W/m 6,4 km/h (2 Bft) 100,00 %
09.10.2020 15:02 15,7 C 15,0 C 12,8 C 73 % 1017,5 hPa 0,0 l/m 0 min 0 min 111 W/m 12,9 km/h (3 Bft) 97,87 %
09.10.2020 15:04 15,7 C 15,0 C 12,8 C 72 % 1017,6 hPa 0,0 l/m 0 min 0 min 108 W/m 12,9 km/h (3 Bft) 100,00 %
09.10.2020 15:06 15,7 C 15,0 C 12,8 C 73 % 1017,5 hPa 0,0 l/m 0 min 0 min 116 W/m 9,7 km/h (2 Bft) 95,74 %
09.10.2020 15:08 15,6 C 15,0 C 12,8 C 73 % 1017,5 hPa 0,0 l/m 0 min 0 min 130 W/m 6,4 km/h (2 Bft) 100,00 %
09.10.2020 15:10 15,6 C 15,6 C 12,8 C 73 % 1017,6 hPa 0,0 l/m 0 min 0 min 146 W/m 9,7 km/h (2 Bft) 100,00 %
09.10.2020 15:12 15,6 C 15,6 C 12,8 C 74 % 1017,6 hPa 0,0 l/m 0 min 0 min 166 W/m 6,4 km/h (2 Bft) 100,00 %
09.10.2020 15:14 15,6 C 16,1 C 12,8 C 73 % 1017,5 hPa 0,0 l/m 0 min 0 min 189 W/m 12,9 km/h (3 Bft) 100,00 %
09.10.2020 15:16 15,6 C 16,7 C 12,8 C 73 % 1017,5 hPa 0,0 l/m 2 min 0 min 227 W/m 9,7 km/h (2 Bft) 100,00 %
09.10.2020 15:18 15,7 C 18,3 C 13,3 C 74 % 1017,5 hPa 0,0 l/m 2 min 0 min 255 W/m 9,7 km/h (2 Bft) 100,00 %
09.10.2020 15:20 15,7 C 18,9 C 13,3 C 74 % 1017,5 hPa 0,0 l/m 2 min 0 min 420 W/m 12,9 km/h (3 Bft) 100,00 %
09.10.2020 15:22 15,8 C 20,0 C 13,3 C 73 % 1017,5 hPa 0,0 l/m 2 min 0 min 485 W/m 12,9 km/h (3 Bft) 95,74 %
09.10.2020 15:24 15,9 C 20,6 C 13,3 C 74 % 1017,5 hPa 0,0 l/m 2 min 0 min 492 W/m 9,7 km/h (2 Bft) 100,00 %
09.10.2020 15:26 16,0 C 20,6 C 13,3 C 73 % 1017,5 hPa 0,0 l/m 2 min 0 min 488 W/m 12,9 km/h (3 Bft) 97,87 %
09.10.2020 15:28 16,1 C 18,3 C 12,8 C 72 % 1017,4 hPa 0,0 l/m 2 min 0 min 371 W/m 9,7 km/h (2 Bft) 100,00 %
09.10.2020 15:30 16,1 C 17,2 C 12,8 C 71 % 1017,5 hPa 0,0 l/m 0 min 0 min 102 W/m 9,7 km/h (2 Bft) 100,00 %
09.10.2020 15:32 16,1 C 16,1 C 12,8 C 71 % 1017,5 hPa 0,0 l/m 0 min 0 min 125 W/m 12,9 km/h (3 Bft) 97,83 %
09.10.2020 15:34 16,1 C 16,1 C 12,8 C 71 % 1017,5 hPa 0,0 l/m 0 min 0 min 121 W/m 6,4 km/h (2 Bft) 97,87 %
09.10.2020 15:36 16,1 C 15,6 C 12,8 C 71 % 1017,5 hPa 0,0 l/m 0 min 0 min 121 W/m 9,7 km/h (2 Bft) 97,14 %
09.10.2020 15:38 16,0 C 15,6 C 12,8 C 71 % 1017,5 hPa 0,0 l/m 0 min 0 min 135 W/m 16,1 km/h (3 Bft) 93,22 %
09.10.2020 15:40 16,0 C 16,1 C 12,8 C 71 % 1017,5 hPa 0,0 l/m 0 min 0 min 161 W/m 12,9 km/h (3 Bft) 97,87 %
09.10.2020 15:42 15,9 C 17,8 C 13,3 C 71 % 1017,4 hPa 0,0 l/m 2 min 0 min 254 W/m 9,7 km/h (2 Bft) 97,87 %
09.10.2020 15:44 16,0 C 18,9 C 13,3 C 72 % 1017,4 hPa 0,0 l/m 2 min 0 min 506 W/m 6,4 km/h (2 Bft) 95,65 %
09.10.2020 15:46 16,1 C 17,2 C 13,3 C 72 % 1017,4 hPa 0,0 l/m 2 min 0 min 379 W/m 9,7 km/h (2 Bft) 95,74 %
09.10.2020 15:48 16,1 C 17,8 C 13,3 C 73 % 1017,4 hPa 0,0 l/m 0 min 0 min 172 W/m 6,4 km/h (2 Bft) 97,87 %
09.10.2020 15:50 16,1 C 17,2 C 13,3 C 74 % 1017,4 hPa 0,0 l/m 0 min 0 min 184 W/m 6,4 km/h (2 Bft) 97,87 %
09.10.2020 15:52 16,1 C 16,7 C 13,3 C 74 % 1017,4 hPa 0,0 l/m 0 min 0 min 179 W/m 6,4 km/h (2 Bft) 95,74 %
09.10.2020 15:54 16,1 C 16,7 C 13,3 C 74 % 1017,3 hPa 0,0 l/m 0 min 0 min 162 W/m 6,4 km/h (2 Bft) 95,74 %
09.10.2020 15:56 16,1 C 16,1 C 13,3 C 74 % 1017,4 hPa 0,0 l/m 0 min 0 min 156 W/m 9,7 km/h (2 Bft) 97,14 %
09.10.2020 15:58 16,1 C 16,1 C 13,9 C 74 % 1017,4 hPa 0,0 l/m 0 min 0 min 171 W/m 6,4 km/h (2 Bft) 96,55 %
09.10.2020 16:00 16,1 C 16,1 C 13,9 C 74 % 1017,4 hPa 0,0 l/m 2 min 0 min 207 W/m 6,4 km/h (2 Bft) 95,74 %
09.10.2020 16:02 16,1 C 16,1 C 13,9 C 74 % 1017,3 hPa 0,0 l/m 0 min 0 min 173 W/m 12,9 km/h (3 Bft) 95,74 %
09.10.2020 16:04 16,1 C 17,2 C 13,9 C 74 % 1017,3 hPa 0,0 l/m 2 min 0 min 200 W/m 12,9 km/h (3 Bft) 93,62 %
09.10.2020 16:06 16,1 C 18,3 C 13,9 C 74 % 1017,3 hPa 0,0 l/m 2 min 0 min 333 W/m 16,1 km/h (3 Bft) 95,65 %
09.10.2020 16:08 16,1 C 17,8 C 14,4 C 73 % 1017,3 hPa 0,0 l/m 2 min 0 min 464 W/m 22,5 km/h (4 Bft) 95,74 %
09.10.2020 16:10 16,1 C 16,7 C 13,9 C 73 % 1017,3 hPa 0,0 l/m 2 min 0 min 340 W/m 12,9 km/h (3 Bft) 94,29 %
09.10.2020 16:12 16,1 C 16,1 C 13,9 C 73 % 1017,3 hPa 0,0 l/m 0 min 0 min 125 W/m 12,9 km/h (3 Bft) 95,74 %
09.10.2020 16:14 16,1 C 17,2 C 13,9 C 73 % 1017,3 hPa 0,0 l/m 0 min 0 min 128 W/m 19,3 km/h (3 Bft) 98,31 %
09.10.2020 16:16 16,1 C 18,9 C 14,4 C 73 % 1017,2 hPa 0,0 l/m 2 min 0 min 261 W/m 12,9 km/h (3 Bft) 97,14 %
09.10.2020 16:18 16,2 C 18,9 C 14,4 C 73 % 1017,2 hPa 0,0 l/m 2 min 0 min 469 W/m 9,7 km/h (2 Bft) 97,87 %
09.10.2020 16:20 16,2 C 18,9 C 14,4 C 74 % 1017,2 hPa 0,0 l/m 2 min 0 min 414 W/m 9,7 km/h (2 Bft) 97,87 %
09.10.2020 16:22 16,3 C 20,0 C 14,4 C 74 % 1017,2 hPa 0,0 l/m 2 min 0 min 377 W/m 6,4 km/h (2 Bft) 97,83 %
09.10.2020 16:24 16,3 C 20,0 C 15,0 C 73 % 1017,2 hPa 0,0 l/m 2 min 0 min 450 W/m 16,1 km/h (3 Bft) 97,87 %
09.10.2020 16:26 16,4 C 20,6 C 15,0 C 73 % 1017,1 hPa 0,0 l/m 2 min 0 min 409 W/m 12,9 km/h (3 Bft) 95,74 %
09.10.2020 16:28 16,4 C 20,6 C 15,0 C 73 % 1017,2 hPa 0,0 l/m 2 min 0 min 382 W/m 9,7 km/h (2 Bft) 97,87 %
09.10.2020 16:30 16,5 C 19,4 C 15,0 C 72 % 1017,2 hPa 0,0 l/m 2 min 0 min 351 W/m 9,7 km/h (2 Bft) 97,87 %
09.10.2020 16:32 16,6 C 20,0 C 15,0 C 72 % 1017,1 hPa 0,0 l/m 2 min 0 min 345 W/m 16,1 km/h (3 Bft) 97,87 %
09.10.2020 16:34 16,6 C 19,4 C 15,0 C 71 % 1017,1 hPa 0,0 l/m 2 min 0 min 336 W/m 6,4 km/h (2 Bft) 95,65 %
09.10.2020 16:36 16,7 C 20,0 C 15,6 C 71 % 1017,1 hPa 0,0 l/m 2 min 0 min 329 W/m 6,4 km/h (2 Bft) 95,74 %
09.10.2020 16:38 16,7 C 19,4 C 15,6 C 69 % 1017,1 hPa 0,0 l/m 2 min 0 min 325 W/m 9,7 km/h (2 Bft) 93,62 %
09.10.2020 16:40 16,7 C 19,4 C 15,6 C 69 % 1017,0 hPa 0,0 l/m 2 min 0 min 318 W/m 9,7 km/h (2 Bft) 95,74 %
09.10.2020 16:42 16,8 C 19,4 C 16,1 C 69 % 1017,0 hPa 0,0 l/m 2 min 0 min 311 W/m 9,7 km/h (2 Bft) 95,74 %
09.10.2020 16:44 16,8 C 19,4 C 16,1 C 69 % 1017,0 hPa 0,0 l/m 2 min 0 min 306 W/m 9,7 km/h (2 Bft) 95,74 %
09.10.2020 16:46 16,8 C 19,4 C 16,7 C 69 % 1017,0 hPa 0,0 l/m 2 min 0 min 302 W/m 12,9 km/h (3 Bft) 93,48 %
09.10.2020 16:48 16,9 C 19,4 C 17,2 C 69 % 1017,0 hPa 0,0 l/m 2 min 0 min 297 W/m 6,4 km/h (2 Bft) 95,74 %
09.10.2020 16:50 16,9 C 18,9 C 17,8 C 69 % 1017,1 hPa 0,0 l/m 2 min 0 min 291 W/m 6,4 km/h (2 Bft) 95,74 %
09.10.2020 16:52 16,9 C 18,9 C 18,9 C 70 % 1017,1 hPa 0,0 l/m 2 min 0 min 282 W/m 6,4 km/h (2 Bft) 95,74 %
09.10.2020 16:54 16,9 C 19,4 C 18,9 C 69 % 1017,0 hPa 0,0 l/m 2 min 0 min 256 W/m 6,4 km/h (2 Bft) 97,87 %
09.10.2020 16:56 16,9 C 18,9 C 17,8 C 69 % 1017,0 hPa 0,0 l/m 2 min 0 min 268 W/m 6,4 km/h (2 Bft) 89,13 %
09.10.2020 16:58 16,9 C 18,9 C 16,7 C 68 % 1016,9 hPa 0,0 l/m 2 min 0 min 268 W/m 9,7 km/h (2 Bft) 93,62 %
09.10.2020 17:00 16,9 C 18,9 C 16,1 C 68 % 1017,0 hPa 0,0 l/m 2 min 0 min 261 W/m 6,4 km/h (2 Bft) 95,74 %
09.10.2020 17:02 17,0 C 18,9 C 15,0 C 69 % 1017,0 hPa 0,0 l/m 2 min 0 min 245 W/m 6,4 km/h (2 Bft) 93,62 %
09.10.2020 17:04 17,0 C 18,3 C 15,0 C 69 % 1017,0 hPa 0,0 l/m 2 min 0 min 184 W/m 12,9 km/h (3 Bft) 95,74 %
09.10.2020 17:06 17,0 C 17,2 C 14,4 C 69 % 1016,9 hPa 0,0 l/m 0 min 0 min 117 W/m 6,4 km/h (2 Bft) 95,74 %
09.10.2020 17:08 17,0 C 17,8 C 13,9 C 70 % 1016,9 hPa 0,0 l/m 2 min 0 min 157 W/m 3,2 km/h (1 Bft) 95,65 %
09.10.2020 17:10 17,0 C 17,2 C 13,9 C 70 % 1016,9 hPa 0,0 l/m 0 min 0 min 115 W/m 6,4 km/h (2 Bft) 95,74 %
09.10.2020 17:12 16,9 C 16,7 C 13,9 C 70 % 1016,9 hPa 0,0 l/m 0 min 0 min 82 W/m 6,4 km/h (2 Bft) 95,74 %
09.10.2020 17:14 16,9 C 16,1 C 13,3 C 68 % 1016,9 hPa 0,0 l/m 0 min 0 min 92 W/m 16,1 km/h (3 Bft) 100,00 %
09.10.2020 17:16 16,8 C 16,7 C 13,3 C 68 % 1016,9 hPa 0,0 l/m 2 min 0 min 193 W/m 6,4 km/h (2 Bft) 100,00 %
09.10.2020 17:18 16,8 C 16,7 C 13,3 C 68 % 1016,9 hPa 0,0 l/m 2 min 0 min 159 W/m 12,9 km/h (3 Bft) 100,00 %
09.10.2020 17:20 16,7 C 15,6 C 13,3 C 67 % 1017,0 hPa 0,0 l/m 0 min 0 min 59 W/m 6,4 km/h (2 Bft) 97,83 %
09.10.2020 17:22 16,6 C 15,0 C 13,3 C 67 % 1017,0 hPa 0,0 l/m 0 min 0 min 54 W/m 6,4 km/h (2 Bft) 100,00 %
09.10.2020 17:24 16,6 C 15,0 C 13,3 C 68 % 1017,0 hPa 0,0 l/m 0 min 0 min 45 W/m 6,4 km/h (2 Bft) 100,00 %
09.10.2020 17:26 16,5 C 14,4 C 13,3 C 68 % 1017,0 hPa 0,0 l/m 0 min 0 min 40 W/m 3,2 km/h (1 Bft) 100,00 %
09.10.2020 17:28 16,4 C 14,4 C 13,3 C 68 % 1017,0 hPa 0,0 l/m 0 min 0 min 43 W/m 6,4 km/h (2 Bft) 97,87 %
09.10.2020 17:30 16,4 C 15,6 C 12,8 C 68 % 1017,0 hPa 0,0 l/m 0 min 0 min 74 W/m 3,2 km/h (1 Bft) 82,98 %
09.10.2020 17:32 16,3 C 16,1 C 13,3 C 69 % 1017,1 hPa 0,0 l/m 2 min 0 min 163 W/m 0,0 km/h (0 Bft) 78,26 %
09.10.2020 17:34 16,2 C 16,1 C 13,3 C 68 % 1017,0 hPa 0,0 l/m 2 min 0 min 164 W/m 0,0 km/h (0 Bft) 97,87 %
09.10.2020 17:36 16,1 C 15,6 C 13,3 C 68 % 1016,9 hPa 0,0 l/m 2 min 0 min 98 W/m 6,4 km/h (2 Bft) 97,87 %
09.10.2020 17:38 16,1 C 15,6 C 13,3 C 68 % 1016,9 hPa 0,0 l/m 0 min 0 min 77 W/m 6,4 km/h (2 Bft) 95,74 %
09.10.2020 17:40 16,0 C 15,0 C 13,3 C 68 % 1016,9 hPa 0,0 l/m 0 min 0 min 83 W/m 9,7 km/h (2 Bft) 97,87 %
09.10.2020 17:42 15,9 C 15,0 C 13,3 C 68 % 1016,9 hPa 0,0 l/m 2 min 0 min 86 W/m 3,2 km/h (1 Bft) 97,87 %
09.10.2020 17:44 15,9 C 15,0 C 12,8 C 69 % 1016,9 hPa 0,0 l/m 0 min 0 min 75 W/m 0,0 km/h (0 Bft) 97,83 %
09.10.2020 17:46 15,8 C 14,4 C 12,8 C 70 % 1016,9 hPa 0,0 l/m 0 min 0 min 58 W/m 6,4 km/h (2 Bft) 95,74 %
09.10.2020 17:48 15,8 C 14,4 C 12,8 C 70 % 1016,9 hPa 0,0 l/m 0 min 0 min 51 W/m 0,0 km/h (0 Bft) 97,87 %
09.10.2020 17:50 15,7 C 14,4 C 12,8 C 70 % 1016,9 hPa 0,0 l/m 0 min 0 min 44 W/m 0,0 km/h (0 Bft) 97,87 %
09.10.2020 17:52 15,7 C 13,9 C 12,8 C 70 % 1017,0 hPa 0,0 l/m 0 min 0 min 40 W/m 0,0 km/h (0 Bft) 97,87 %
09.10.2020 17:54 15,7 C 13,9 C 12,8 C 70 % 1017,0 hPa 0,0 l/m 0 min 0 min 39 W/m 0,0 km/h (0 Bft) 97,87 %
09.10.2020 17:56 15,6 C 13,9 C 12,2 C 71 % 1017,0 hPa 0,0 l/m 0 min 0 min 39 W/m 0,0 km/h (0 Bft) 97,83 %
09.10.2020 17:58 15,6 C 13,9 C 12,2 C 71 % 1017,0 hPa 0,0 l/m 0 min 0 min 38 W/m 0,0 km/h (0 Bft) 95,74 %
09.10.2020 18:00 15,5 C 13,9 C 12,2 C 72 % 1017,0 hPa 0,0 l/m 0 min 0 min 36 W/m 0,0 km/h (0 Bft) 97,87 %
09.10.2020 18:02 15,4 C 13,3 C 12,2 C 72 % 1017,0 hPa 0,0 l/m 0 min 0 min 35 W/m 0,0 km/h (0 Bft) 97,87 %
09.10.2020 18:04 15,4 C 13,3 C 11,7 C 73 % 1017,0 hPa 0,0 l/m 0 min 0 min 34 W/m 0,0 km/h (0 Bft) 97,87 %
09.10.2020 18:08 15,3 C 13,3 C 11,7 C 74 % 1017,0 hPa 0,0 l/m 0 min 0 min 31 W/m 0,0 km/h (0 Bft) 97,85 %
09.10.2020 18:10 15,2 C 13,3 C 11,7 C 74 % 1017,0 hPa 0,0 l/m 0 min 0 min 28 W/m 0,0 km/h (0 Bft) 97,87 %
09.10.2020 18:12 15,1 C 13,3 C 11,7 C 74 % 1017,0 hPa 0,0 l/m 0 min 0 min 26 W/m 0,0 km/h (0 Bft) 100,00 %
09.10.2020 18:14 15,0 C 13,3 C 11,7 C 74 % 1017,0 hPa 0,0 l/m 0 min 0 min 27 W/m 0,0 km/h (0 Bft) 97,87 %
09.10.2020 18:16 14,9 C 12,8 C 11,7 C 74 % 1017,0 hPa 0,0 l/m 0 min 0 min 24 W/m 0,0 km/h (0 Bft) 100,00 %
09.10.2020 18:18 14,9 C 12,8 C 11,7 C 74 % 1017,0 hPa 0,0 l/m 0 min 0 min 20 W/m 0,0 km/h (0 Bft) 100,00 %
09.10.2020 18:20 14,8 C 12,8 C 11,7 C 74 % 1017,0 hPa 0,0 l/m 0 min 0 min 18 W/m 0,0 km/h (0 Bft) 100,00 %
09.10.2020 18:22 14,8 C 12,8 C 11,7 C 75 % 1017,0 hPa 0,0 l/m 0 min 0 min 18 W/m 0,0 km/h (0 Bft) 100,00 %
09.10.2020 18:24 14,7 C 12,8 C 11,1 C 75 % 1017,0 hPa 0,0 l/m 0 min 0 min 16 W/m 0,0 km/h (0 Bft) 100,00 %
09.10.2020 18:26 14,6 C 12,8 C 11,1 C 76 % 1016,9 hPa 0,0 l/m 0 min 0 min 16 W/m 0,0 km/h (0 Bft) 100,00 %
09.10.2020 18:28 14,6 C 12,8 C 11,1 C 76 % 1016,9 hPa 0,0 l/m 0 min 0 min 14 W/m 0,0 km/h (0 Bft) 97,87 %
09.10.2020 18:30 14,5 C 12,2 C 11,1 C 76 % 1016,9 hPa 0,0 l/m 0 min 0 min 14 W/m 0,0 km/h (0 Bft) 100,00 %
09.10.2020 18:32 14,4 C 12,2 C 10,6 C 76 % 1016,9 hPa 0,0 l/m 0 min 0 min 12 W/m 0,0 km/h (0 Bft) 100,00 %
09.10.2020 18:34 14,4 C 12,2 C 10,6 C 76 % 1016,9 hPa 0,0 l/m 0 min 0 min 12 W/m 0,0 km/h (0 Bft) 97,87 %
09.10.2020 18:36 14,3 C 12,2 C 10,6 C 76 % 1016,9 hPa 0,0 l/m 0 min 0 min 12 W/m 3,2 km/h (1 Bft) 100,00 %
09.10.2020 18:38 14,3 C 12,2 C 10,6 C 76 % 1017,0 hPa 0,0 l/m 0 min 0 min 11 W/m 0,0 km/h (0 Bft) 100,00 %
09.10.2020 18:40 14,3 C 12,2 C 10,6 C 76 % 1017,0 hPa 0,0 l/m 0 min 0 min 10 W/m 0,0 km/h (0 Bft) 100,00 %
09.10.2020 18:42 14,3 C 12,2 C 10,6 C 76 % 1017,0 hPa 0,0 l/m 0 min 0 min 8 W/m 0,0 km/h (0 Bft) 100,00 %
09.10.2020 18:44 14,2 C 12,2 C 10,6 C 77 % 1017,0 hPa 0,0 l/m 0 min 0 min 6 W/m 0,0 km/h (0 Bft) 100,00 %
09.10.2020 18:46 14,1 C 12,2 C 10,6 C 77 % 1017,0 hPa 0,0 l/m 0 min 0 min 2 W/m 0,0 km/h (0 Bft) 100,00 %
09.10.2020 18:48 14,1 C 11,7 C 10,6 C 77 % 1017,0 hPa 0,0 l/m 0 min 0 min 0 W/m 0,0 km/h (0 Bft) 100,00 %
09.10.2020 18:50 14,0 C 11,7 C 10,0 C 77 % 1017,0 hPa 0,0 l/m 0 min 0 min 0 W/m 0,0 km/h (0 Bft) 100,00 %
09.10.2020 18:52 13,9 C 11,7 C 10,0 C 77 % 1017,0 hPa 0,0 l/m 0 min 0 min 0 W/m 0,0 km/h (0 Bft) 97,87 %
09.10.2020 18:54 13,9 C 12,2 C 10,6 C 77 % 1017,0 hPa 0,0 l/m 0 min 0 min 0 W/m 0,0 km/h (0 Bft) 100,00 %
09.10.2020 18:56 13,8 C 12,2 C 10,6 C 78 % 1017,0 hPa 0,0 l/m 0 min 0 min 0 W/m 0,0 km/h (0 Bft) 97,87 %
09.10.2020 18:58 13,8 C 12,2 C 10,6 C 78 % 1017,0 hPa 0,0 l/m 0 min 0 min 0 W/m 0,0 km/h (0 Bft) 95,74 %
09.10.2020 19:00 13,7 C 12,2 C 10,6 C 78 % 1017,0 hPa 0,0 l/m 0 min 0 min 0 W/m 0,0 km/h (0 Bft) 100,00 %
09.10.2020 19:02 13,7 C 11,7 C 10,6 C 78 % 1016,9 hPa 0,0 l/m 0 min 0 min 0 W/m 0,0 km/h (0 Bft) 100,00 %
09.10.2020 19:04 13,6 C 12,2 C 10,6 C 78 % 1016,9 hPa 0,0 l/m 0 min 0 min 0 W/m 0,0 km/h (0 Bft) 100,00 %
09.10.2020 19:06 13,6 C 12,2 C 10,6 C 78 % 1016,9 hPa 0,0 l/m 0 min 0 min 0 W/m 0,0 km/h (0 Bft) 95,65 %
09.10.2020 19:08 13,6 C 12,2 C 10,6 C 79 % 1016,9 hPa 0,0 l/m 0 min 0 min 0 W/m 0,0 km/h (0 Bft) 97,87 %
09.10.2020 19:10 13,5 C 12,2 C 10,6 C 79 % 1016,9 hPa 0,0 l/m 0 min 0 min 0 W/m 0,0 km/h (0 Bft) 95,74 %
09.10.2020 19:12 13,5 C 11,7 C 10,6 C 80 % 1017,0 hPa 0,0 l/m 0 min 0 min 0 W/m 0,0 km/h (0 Bft) 93,62 %
09.10.2020 19:14 13,4 C 11,7 C 10,6 C 80 % 1017,0 hPa 0,0 l/m 0 min 0 min 0 W/m 0,0 km/h (0 Bft) 93,62 %
09.10.2020 19:16 13,4 C 11,7 C 10,6 C 80 % 1017,0 hPa 0,0 l/m 0 min 0 min 0 W/m 0,0 km/h (0 Bft) 97,83 %
09.10.2020 19:18 13,4 C 11,7 C 10,6 C 81 % 1017,0 hPa 0,0 l/m 0 min 0 min 0 W/m 0,0 km/h (0 Bft) 95,74 %
09.10.2020 19:20 13,4 C 11,7 C 10,6 C 81 % 1016,9 hPa 0,0 l/m 0 min 0 min 0 W/m 0,0 km/h (0 Bft) 95,74 %
09.10.2020 19:22 13,3 C 11,7 C 10,6 C 82 % 1017,0 hPa 0,0 l/m 0 min 0 min 0 W/m 0,0 km/h (0 Bft) 95,74 %
09.10.2020 19:24 13,3 C 11,7 C 10,6 C 82 % 1017,0 hPa 0,0 l/m 0 min 0 min 0 W/m 0,0 km/h (0 Bft) 95,74 %
09.10.2020 19:26 13,3 C 11,7 C 10,6 C 82 % 1017,1 hPa 0,0 l/m 0 min 0 min 0 W/m 0,0 km/h (0 Bft) 95,74 %
09.10.2020 19:28 13,3 C 11,7 C 10,6 C 82 % 1017,1 hPa 0,0 l/m 0 min 0 min 0 W/m 0,0 km/h (0 Bft) 95,65 %
09.10.2020 19:30 13,3 C 11,7 C 10,6 C 82 % 1017,1 hPa 0,0 l/m 0 min 0 min 0 W/m 0,0 km/h (0 Bft) 93,62 %
09.10.2020 19:32 13,2 C 11,7 C 10,6 C 82 % 1017,2 hPa 0,0 l/m 0 min 0 min 0 W/m 0,0 km/h (0 Bft) 93,62 %
09.10.2020 19:34 13,2 C 11,1 C 10,6 C 83 % 1017,2 hPa 0,0 l/m 0 min 0 min 0 W/m 0,0 km/h (0 Bft) 95,74 %
09.10.2020 19:36 13,2 C 11,1 C 10,6 C 83 % 1017,2 hPa 0,0 l/m 0 min 2 min 0 W/m 0,0 km/h (0 Bft) 95,74 %
09.10.2020 19:38 13,2 C 11,1 C 10,6 C 83 % 1017,2 hPa 0,0 l/m 0 min 0 min 0 W/m 0,0 km/h (0 Bft) 93,62 %
09.10.2020 19:40 13,1 C 11,1 C 10,6 C 83 % 1017,3 hPa 0,0 l/m 0 min 2 min 0 W/m 0,0 km/h (0 Bft) 95,65 %
09.10.2020 19:42 13,1 C 11,1 C 10,6 C 83 % 1017,4 hPa 0,0 l/m 0 min 2 min 0 W/m 0,0 km/h (0 Bft) 95,74 %
09.10.2020 19:44 13,1 C 10,6 C 10,6 C 83 % 1017,4 hPa 0,0 l/m 0 min 2 min 0 W/m 0,0 km/h (0 Bft) 95,74 %
09.10.2020 19:46 13,1 C 10,6 C 10,6 C 84 % 1017,4 hPa 0,0 l/m 0 min 2 min 0 W/m 0,0 km/h (0 Bft) 97,87 %
09.10.2020 19:48 13,1 C 10,6 C 10,6 C 84 % 1017,4 hPa 0,2 l/m 0 min 2 min 0 W/m 0,0 km/h (0 Bft) 97,87 %
09.10.2020 19:50 13,1 C 10,6 C 10,6 C 85 % 1017,4 hPa 0,0 l/m 0 min 2 min 0 W/m 0,0 km/h (0 Bft) 95,74 %
09.10.2020 19:52 13,1 C 10,0 C 10,6 C 85 % 1017,5 hPa 0,0 l/m 0 min 2 min 0 W/m 0,0 km/h (0 Bft) 97,83 %
09.10.2020 19:54 13,1 C 10,0 C 10,6 C 86 % 1017,4 hPa 0,0 l/m 0 min 2 min 0 W/m 3,2 km/h (1 Bft) 97,87 %
09.10.2020 19:56 13,0 C 10,0 C 10,6 C 86 % 1017,4 hPa 0,0 l/m 0 min 2 min 0 W/m 3,2 km/h (1 Bft) 97,87 %
09.10.2020 19:58 12,9 C 10,0 C 10,6 C 86 % 1017,5 hPa 0,0 l/m 0 min 2 min 0 W/m 3,2 km/h (1 Bft) 97,87 %
09.10.2020 20:00 12,9 C 10,0 C 10,6 C 87 % 1017,4 hPa 0,0 l/m 0 min 2 min 0 W/m 3,2 km/h (1 Bft) 97,87 %
09.10.2020 20:02 12,9 C 10,0 C 10,6 C 87 % 1017,4 hPa 0,0 l/m 0 min 0 min 0 W/m 3,2 km/h (1 Bft) 97,83 %
09.10.2020 20:04 12,8 C 10,0 C 10,6 C 87 % 1017,4 hPa 0,0 l/m 0 min 0 min 0 W/m 0,0 km/h (0 Bft) 100,00 %
09.10.2020 20:06 12,8 C 10,0 C 10,6 C 87 % 1017,4 hPa 0,0 l/m 0 min 0 min 0 W/m 0,0 km/h (0 Bft) 100,00 %
09.10.2020 20:08 12,8 C 10,0 C 10,6 C 88 % 1017,4 hPa 0,0 l/m 0 min 0 min 0 W/m 6,4 km/h (2 Bft) 97,87 %
09.10.2020 20:10 12,7 C 10,6 C 10,6 C 88 % 1017,4 hPa 0,0 l/m 0 min 0 min 0 W/m 0,0 km/h (0 Bft) 97,87 %
09.10.2020 20:12 12,7 C 10,6 C 10,6 C 88 % 1017,4 hPa 0,0 l/m 0 min 0 min 0 W/m 3,2 km/h (1 Bft) 97,87 %
09.10.2020 20:14 12,7 C 10,6 C 10,6 C 88 % 1017,4 hPa 0,0 l/m 0 min 2 min 0 W/m 0,0 km/h (0 Bft) 100,00 %
09.10.2020 20:16 12,6 C 10,0 C 10,6 C 88 % 1017,4 hPa 0,0 l/m 0 min 2 min 0 W/m 9,7 km/h (2 Bft) 100,00 %
09.10.2020 20:18 12,6 C 10,0 C 10,6 C 89 % 1017,4 hPa 0,0 l/m 0 min 2 min 0 W/m 9,7 km/h (2 Bft) 97,87 %
09.10.2020 20:20 12,5 C 10,0 C 10,6 C 89 % 1017,5 hPa 0,0 l/m 0 min 2 min 0 W/m 0,0 km/h (0 Bft) 100,00 %
09.10.2020 20:22 12,5 C 10,0 C 10,6 C 89 % 1017,5 hPa 0,0 l/m 0 min 2 min 0 W/m 3,2 km/h (1 Bft) 100,00 %
09.10.2020 20:24 12,4 C 10,0 C 10,6 C 89 % 1017,5 hPa 0,0 l/m 0 min 2 min 0 W/m 0,0 km/h (0 Bft) 100,00 %
09.10.2020 20:26 12,4 C 10,0 C 10,6 C 89 % 1017,4 hPa 0,0 l/m 0 min 2 min 0 W/m 0,0 km/h (0 Bft) 100,00 %
09.10.2020 20:28 12,4 C 10,0 C 10,6 C 89 % 1017,5 hPa 0,0 l/m 0 min 2 min 0 W/m 0,0 km/h (0 Bft) 95,74 %
09.10.2020 20:30 12,3 C 10,0 C 10,6 C 89 % 1017,4 hPa 0,2 l/m 0 min 2 min 0 W/m 0,0 km/h (0 Bft) 100,00 %
09.10.2020 20:32 12,3 C 10,0 C 10,6 C 90 % 1017,3 hPa 0,0 l/m 0 min 2 min 0 W/m 0,0 km/h (0 Bft) 100,00 %
09.10.2020 20:34 12,3 C 10,0 C 10,0 C 90 % 1017,3 hPa 0,0 l/m 0 min 2 min 0 W/m 0,0 km/h (0 Bft) 100,00 %
09.10.2020 20:36 12,3 C 10,0 C 10,0 C 90 % 1017,4 hPa 0,0 l/m 0 min 0 min 0 W/m 0,0 km/h (0 Bft) 100,00 %
09.10.2020 20:38 12,3 C 10,0 C 10,0 C 90 % 1017,4 hPa 0,0 l/m 0 min 0 min 0 W/m 0,0 km/h (0 Bft) 100,00 %
09.10.2020 20:40 12,3 C 10,0 C 10,0 C 90 % 1017,4 hPa 0,0 l/m 0 min 2 min 0 W/m 0,0 km/h (0 Bft) 100,00 %
09.10.2020 20:42 12,2 C 10,0 C 10,0 C 90 % 1017,5 hPa 0,0 l/m 0 min 2 min 0 W/m 0,0 km/h (0 Bft) 97,87 %
09.10.2020 20:44 12,2 C 10,0 C 10,0 C 90 % 1017,4 hPa 0,0 l/m 0 min 2 min 0 W/m 0,0 km/h (0 Bft) 97,87 %
09.10.2020 20:46 12,2 C 10,0 C 10,0 C 90 % 1017,4 hPa 0,0 l/m 0 min 2 min 0 W/m 3,2 km/h (1 Bft) 97,87 %
09.10.2020 20:48 12,2 C 10,0 C 10,0 C 91 % 1017,5 hPa 0,0 l/m 0 min 2 min 0 W/m 0,0 km/h (0 Bft) 97,87 %
09.10.2020 20:50 12,2 C 10,0 C 10,0 C 91 % 1017,4 hPa 0,0 l/m 0 min 2 min 0 W/m 0,0 km/h (0 Bft) 97,83 %
09.10.2020 20:52 12,1 C 10,0 C 10,0 C 91 % 1017,4 hPa 0,2 l/m 0 min 0 min 0 W/m 0,0 km/h (0 Bft) 97,96 %
09.10.2020 20:54 12,1 C 10,0 C 10,0 C 91 % 1017,4 hPa 0,0 l/m 0 min 2 min 0 W/m 0,0 km/h (0 Bft) 95,83 %
09.10.2020 20:56 12,1 C 10,0 C 10,0 C 91 % 1017,4 hPa 0,0 l/m 0 min 2 min 0 W/m 0,0 km/h (0 Bft) 97,92 %
09.10.2020 20:58 12,1 C 10,0 C 10,0 C 91 % 1017,4 hPa 0,0 l/m 0 min 2 min 0 W/m 0,0 km/h (0 Bft) 97,83 %
09.10.2020 21:00 12,1 C 10,0 C 10,0 C 92 % 1017,4 hPa 0,0 l/m 0 min 2 min 0 W/m 0,0 km/h (0 Bft) 97,87 %
09.10.2020 21:02 12,1 C 10,0 C 10,0 C 92 % 1017,4 hPa 0,0 l/m 0 min 2 min 0 W/m 3,2 km/h (1 Bft) 97,87 %
09.10.2020 21:04 12,1 C 10,0 C 10,0 C 92 % 1017,4 hPa 0,0 l/m 0 min 2 min 0 W/m 3,2 km/h (1 Bft) 97,87 %
09.10.2020 21:06 12,0 C 10,0 C 10,0 C 92 % 1017,4 hPa 0,0 l/m 0 min 2 min 0 W/m 3,2 km/h (1 Bft) 93,62 %
09.10.2020 21:08 12,0 C 10,0 C 10,6 C 92 % 1017,4 hPa 0,0 l/m 0 min 2 min 0 W/m 0,0 km/h (0 Bft) 95,92 %
09.10.2020 21:10 12,0 C 10,0 C 10,6 C 92 % 1017,4 hPa 0,0 l/m 0 min 2 min 0 W/m 0,0 km/h (0 Bft) 97,87 %
09.10.2020 21:12 12,0 C 10,0 C 10,0 C 92 % 1017,4 hPa 0,0 l/m 0 min 2 min 0 W/m 0,0 km/h (0 Bft) 97,87 %
09.10.2020 21:14 11,9 C 10,0 C 10,0 C 92 % 1017,4 hPa 0,0 l/m 0 min 2 min 0 W/m 0,0 km/h (0 Bft) 97,87 %
09.10.2020 21:16 11,9 C 10,0 C 10,0 C 92 % 1017,4 hPa 0,0 l/m 0 min 0 min 0 W/m 0,0 km/h (0 Bft) 93,62 %
09.10.2020 21:18 11,9 C 10,0 C 10,0 C 93 % 1017,4 hPa 0,0 l/m 0 min 2 min 0 W/m 6,4 km/h (2 Bft) 95,83 %
09.10.2020 21:20 11,9 C 10,0 C 10,0 C 93 % 1017,3 hPa 0,0 l/m 0 min 2 min 0 W/m 3,2 km/h (1 Bft) 97,83 %
09.10.2020 21:22 11,9 C 10,0 C 10,0 C 93 % 1017,3 hPa 0,0 l/m 0 min 0 min 0 W/m 3,2 km/h (1 Bft) 95,74 %
09.10.2020 21:24 11,9 C 10,0 C 10,0 C 93 % 1017,3 hPa 0,2 l/m 0 min 2 min 0 W/m 6,4 km/h (2 Bft) 95,74 %
09.10.2020 21:26 11,9 C 10,0 C 10,0 C 93 % 1017,3 hPa 0,0 l/m 0 min 0 min 0 W/m 3,2 km/h (1 Bft) 93,62 %
09.10.2020 21:28 11,9 C 10,0 C 10,0 C 93 % 1017,3 hPa 0,0 l/m 0 min 0 min 0 W/m 0,0 km/h (0 Bft) 95,74 %
09.10.2020 21:30 11,8 C 10,0 C 10,0 C 93 % 1017,3 hPa 0,0 l/m 0 min 0 min 0 W/m 0,0 km/h (0 Bft) 95,74 %
09.10.2020 21:32 11,8 C 10,0 C 10,0 C 93 % 1017,3 hPa 0,0 l/m 0 min 2 min 0 W/m 6,4 km/h (2 Bft) 92,86 %
09.10.2020 21:34 11,8 C 10,0 C 10,0 C 93 % 1017,3 hPa 0,0 l/m 0 min 2 min 0 W/m 0,0 km/h (0 Bft) 95,65 %
09.10.2020 21:36 11,8 C 10,0 C 10,0 C 93 % 1017,3 hPa 0,0 l/m 0 min 0 min 0 W/m 0,0 km/h (0 Bft) 93,75 %
09.10.2020 21:38 11,8 C 10,0 C 10,0 C 93 % 1017,2 hPa 0,0 l/m 0 min 0 min 0 W/m 0,0 km/h (0 Bft) 93,75 %
09.10.2020 21:40 11,8 C 10,0 C 10,0 C 93 % 1017,2 hPa 0,0 l/m 0 min 0 min 0 W/m 0,0 km/h (0 Bft) 93,75 %
09.10.2020 21:42 11,8 C 10,0 C 10,0 C 93 % 1017,2 hPa 0,0 l/m 0 min 0 min 0 W/m 0,0 km/h (0 Bft) 95,83 %
09.10.2020 21:44 11,8 C 10,0 C 10,0 C 93 % 1017,2 hPa 0,0 l/m 0 min 0 min 0 W/m 0,0 km/h (0 Bft) 95,74 %
09.10.2020 21:46 11,8 C 10,0 C 10,0 C 93 % 1017,2 hPa 0,0 l/m 0 min 0 min 0 W/m 0,0 km/h (0 Bft) 95,65 %
09.10.2020 21:48 11,7 C 10,0 C 10,0 C 94 % 1017,2 hPa 0,0 l/m 0 min 0 min 0 W/m 0,0 km/h (0 Bft) 95,74 %
09.10.2020 21:50 11,8 C 10,0 C 10,0 C 94 % 1017,2 hPa 0,0 l/m 0 min 0 min 0 W/m 0,0 km/h (0 Bft) 93,62 %
09.10.2020 21:52 11,7 C 10,0 C 10,0 C 94 % 1017,3 hPa 0,0 l/m 0 min 0 min 0 W/m 0,0 km/h (0 Bft) 93,62 %
09.10.2020 21:54 11,7 C 10,0 C 10,0 C 94 % 1017,3 hPa 0,0 l/m 0 min 0 min 0 W/m 0,0 km/h (0 Bft) 95,74 %
09.10.2020 21:56 11,7 C 10,0 C 10,0 C 94 % 1017,2 hPa 0,0 l/m 0 min 0 min 0 W/m 0,0 km/h (0 Bft) 95,65 %
09.10.2020 21:58 11,7 C 10,0 C 10,0 C 94 % 1017,2 hPa 0,0 l/m 0 min 0 min 0 W/m 0,0 km/h (0 Bft) 97,87 %
09.10.2020 22:00 11,7 C 10,0 C 10,0 C 94 % 1017,2 hPa 0,0 l/m 0 min 0 min 0 W/m 0,0 km/h (0 Bft) 100,00 %
09.10.2020 22:02 11,6 C 10,0 C 10,0 C 94 % 1017,2 hPa 0,0 l/m 0 min 0 min 0 W/m 0,0 km/h (0 Bft) 97,96 %
09.10.2020 22:04 11,6 C 10,0 C 10,0 C 94 % 1017,2 hPa 0,0 l/m 0 min 0 min 0 W/m 0,0 km/h (0 Bft) 100,00 %
09.10.2020 22:06 11,6 C 10,0 C 9,4 C 94 % 1017,2 hPa 0,0 l/m 0 min 0 min 0 W/m 0,0 km/h (0 Bft) 100,00 %
09.10.2020 22:08 11,6 C 10,0 C 9,4 C 94 % 1017,2 hPa 0,0 l/m 0 min 0 min 0 W/m 0,0 km/h (0 Bft) 100,00 %
09.10.2020 22:10 11,6 C 10,0 C 9,4 C 94 % 1017,2 hPa 0,0 l/m 0 min 0 min 0 W/m 0,0 km/h (0 Bft) 100,00 %
09.10.2020 22:12 11,6 C 10,0 C 10,0 C 94 % 1017,2 hPa 0,0 l/m 0 min 0 min 0 W/m 0,0 km/h (0 Bft) 97,87 %
09.10.2020 22:14 11,5 C 10,0 C 10,0 C 94 % 1017,2 hPa 0,0 l/m 0 min 0 min 0 W/m 0,0 km/h (0 Bft) 100,00 %
09.10.2020 22:16 11,5 C 10,0 C 10,0 C 94 % 1017,2 hPa 0,0 l/m 0 min 0 min 0 W/m 0,0 km/h (0 Bft) 100,00 %
09.10.2020 22:18 11,5 C 10,0 C 9,4 C 94 % 1017,2 hPa 0,0 l/m 0 min 0 min 0 W/m 0,0 km/h (0 Bft) 97,83 %
09.10.2020 22:20 11,5 C 10,0 C 9,4 C 94 % 1017,2 hPa 0,0 l/m 0 min 0 min 0 W/m 0,0 km/h (0 Bft) 95,74 %
09.10.2020 22:22 11,4 C 10,0 C 9,4 C 94 % 1017,3 hPa 0,0 l/m 0 min 0 min 0 W/m 0,0 km/h (0 Bft) 93,62 %
09.10.2020 22:24 11,4 C 10,0 C 9,4 C 94 % 1017,2 hPa 0,0 l/m 0 min 0 min 0 W/m 3,2 km/h (1 Bft) 95,74 %
09.10.2020 22:26 11,4 C 10,0 C 9,4 C 94 % 1017,3 hPa 0,0 l/m 0 min 0 min 0 W/m 3,2 km/h (1 Bft) 97,87 %
09.10.2020 22:28 11,4 C 10,0 C 9,4 C 94 % 1017,3 hPa 0,0 l/m 0 min 0 min 0 W/m 0,0 km/h (0 Bft) 97,83 %
09.10.2020 22:30 11,4 C 10,0 C 9,4 C 95 % 1017,4 hPa 0,0 l/m 0 min 0 min 0 W/m 0,0 km/h (0 Bft) 95,74 %
09.10.2020 22:32 11,3 C 10,0 C 10,0 C 95 % 1017,4 hPa 0,0 l/m 0 min 0 min 0 W/m 0,0 km/h (0 Bft) 97,92 %
09.10.2020 22:34 11,3 C 10,0 C 10,0 C 95 % 1017,4 hPa 0,0 l/m 0 min 0 min 0 W/m 0,0 km/h (0 Bft) 97,87 %
09.10.2020 22:36 11,3 C 10,0 C 10,0 C 95 % 1017,4 hPa 0,0 l/m 0 min 0 min 0 W/m 0,0 km/h (0 Bft) 95,74 %
09.10.2020 22:38 11,3 C 10,0 C 10,0 C 95 % 1017,3 hPa 0,0 l/m 0 min 0 min 0 W/m 6,4 km/h (2 Bft) 95,74 %
09.10.2020 22:40 11,3 C 10,0 C 10,0 C 95 % 1017,3 hPa 0,0 l/m 0 min 0 min 0 W/m 0,0 km/h (0 Bft) 95,65 %
09.10.2020 22:42 11,3 C 10,0 C 10,0 C 95 % 1017,3 hPa 0,0 l/m 0 min 0 min 0 W/m 0,0 km/h (0 Bft) 95,74 %
09.10.2020 22:44 11,3 C 10,0 C 9,4 C 95 % 1017,3 hPa 0,0 l/m 0 min 0 min 0 W/m 9,7 km/h (2 Bft) 97,87 %
09.10.2020 22:46 11,3 C 10,0 C 9,4 C 95 % 1017,3 hPa 0,0 l/m 0 min 0 min 0 W/m 3,2 km/h (1 Bft) 95,74 %
09.10.2020 22:48 11,2 C 10,0 C 9,4 C 95 % 1017,3 hPa 0,0 l/m 0 min 0 min 0 W/m 6,4 km/h (2 Bft) 97,87 %
09.10.2020 22:50 11,2 C 10,0 C 9,4 C 95 % 1017,3 hPa 0,0 l/m 0 min 0 min 0 W/m 6,4 km/h (2 Bft) 97,87 %
09.10.2020 22:52 11,2 C 10,0 C 9,4 C 95 % 1017,3 hPa 0,0 l/m 0 min 0 min 0 W/m 9,7 km/h (2 Bft) 97,83 %
09.10.2020 22:54 11,2 C 10,0 C 9,4 C 95 % 1017,3 hPa 0,0 l/m 0 min 0 min 0 W/m 9,7 km/h (2 Bft) 95,74 %
09.10.2020 22:56 11,2 C 10,0 C 9,4 C 95 % 1017,3 hPa 0,0 l/m 0 min 0 min 0 W/m 9,7 km/h (2 Bft) 95,74 %
09.10.2020 22:58 11,2 C 10,0 C 9,4 C 95 % 1017,4 hPa 0,0 l/m 0 min 0 min 0 W/m 6,4 km/h (2 Bft) 97,87 %
09.10.2020 23:00 11,2 C 10,0 C 9,4 C 96 % 1017,3 hPa 0,0 l/m 0 min 0 min 0 W/m 6,4 km/h (2 Bft) 97,87 %
09.10.2020 23:02 11,2 C 10,0 C 10,0 C 96 % 1017,4 hPa 0,0 l/m 0 min 0 min 0 W/m 6,4 km/h (2 Bft) 97,87 %
09.10.2020 23:04 11,2 C 10,0 C 10,0 C 96 % 1017,3 hPa 0,0 l/m 0 min 0 min 0 W/m 9,7 km/h (2 Bft) 97,83 %
09.10.2020 23:06 11,2 C 10,0 C 10,0 C 96 % 1017,4 hPa 0,0 l/m 0 min 0 min 0 W/m 6,4 km/h (2 Bft) 95,74 %
09.10.2020 23:08 11,2 C 10,0 C 10,0 C 96 % 1017,3 hPa 0,0 l/m 0 min 0 min 0 W/m 6,4 km/h (2 Bft) 97,87 %
09.10.2020 23:10 11,2 C 10,0 C 10,0 C 96 % 1017,4 hPa 0,0 l/m 0 min 0 min 0 W/m 3,2 km/h (1 Bft) 95,74 %
09.10.2020 23:12 11,1 C 10,0 C 10,0 C 96 % 1017,3 hPa 0,0 l/m 0 min 0 min 0 W/m 6,4 km/h (2 Bft) 100,00 %
09.10.2020 23:14 11,1 C 10,0 C 10,0 C 96 % 1017,3 hPa 0,0 l/m 0 min 0 min 0 W/m 6,4 km/h (2 Bft) 100,00 %
09.10.2020 23:16 11,1 C 10,0 C 10,0 C 96 % 1017,4 hPa 0,0 l/m 0 min 0 min 0 W/m 12,9 km/h (3 Bft) 97,83 %
09.10.2020 23:18 11,1 C 10,0 C 10,0 C 96 % 1017,4 hPa 0,0 l/m 0 min 0 min 0 W/m 12,9 km/h (3 Bft) 97,87 %
09.10.2020 23:20 11,1 C 10,0 C 9,4 C 96 % 1017,4 hPa 0,0 l/m 0 min 0 min 0 W/m 6,4 km/h (2 Bft) 97,87 %
09.10.2020 23:22 11,1 C 10,0 C 9,4 C 96 % 1017,3 hPa 0,0 l/m 0 min 0 min 0 W/m 9,7 km/h (2 Bft) 100,00 %
09.10.2020 23:24 11,1 C 10,0 C 9,4 C 96 % 1017,3 hPa 0,0 l/m 0 min 0 min 0 W/m 6,4 km/h (2 Bft) 97,92 %
09.10.2020 23:26 11,1 C 9,4 C 9,4 C 96 % 1017,3 hPa 0,0 l/m 0 min 0 min 0 W/m 6,4 km/h (2 Bft) 95,65 %
09.10.2020 23:28 11,1 C 9,4 C 9,4 C 96 % 1017,3 hPa 0,0 l/m 0 min 0 min 0 W/m 6,4 km/h (2 Bft) 100,00 %
09.10.2020 23:30 11,0 C 9,4 C 9,4 C 96 % 1017,4 hPa 0,0 l/m 0 min 0 min 0 W/m 9,7 km/h (2 Bft) 100,00 %
09.10.2020 23:32 11,0 C 9,4 C 9,4 C 96 % 1017,3 hPa 0,0 l/m 0 min 0 min 0 W/m 6,4 km/h (2 Bft) 100,00 %
09.10.2020 23:34 10,9 C 9,4 C 9,4 C 96 % 1017,3 hPa 0,0 l/m 0 min 0 min 0 W/m 3,2 km/h (1 Bft) 97,87 %
09.10.2020 23:36 10,9 C 9,4 C 9,4 C 96 % 1017,3 hPa 0,0 l/m 0 min 0 min 0 W/m 9,7 km/h (2 Bft) 100,00 %
09.10.2020 23:38 10,9 C 9,4 C 9,4 C 96 % 1017,3 hPa 0,0 l/m 0 min 0 min 0 W/m 3,2 km/h (1 Bft) 97,83 %
09.10.2020 23:40 10,9 C 9,4 C 9,4 C 96 % 1017,3 hPa 0,0 l/m 0 min 0 min 0 W/m 9,7 km/h (2 Bft) 97,87 %
09.10.2020 23:42 10,9 C 9,4 C 9,4 C 96 % 1017,3 hPa 0,0 l/m 0 min 0 min 0 W/m 9,7 km/h (2 Bft) 97,87 %
09.10.2020 23:44 10,8 C 9,4 C 9,4 C 96 % 1017,2 hPa 0,0 l/m 0 min 0 min 0 W/m 9,7 km/h (2 Bft) 97,87 %
09.10.2020 23:46 10,8 C 9,4 C 9,4 C 96 % 1017,2 hPa 0,0 l/m 0 min 0 min 0 W/m 6,4 km/h (2 Bft) 97,87 %
09.10.2020 23:48 10,8 C 9,4 C 9,4 C 96 % 1017,2 hPa 0,0 l/m 0 min 0 min 0 W/m 6,4 km/h (2 Bft) 95,74 %
09.10.2020 23:50 10,8 C 9,4 C 9,4 C 96 % 1017,2 hPa 0,0 l/m 0 min 0 min 0 W/m 12,9 km/h (3 Bft) 97,83 %
09.10.2020 23:52 10,7 C 9,4 C 9,4 C 96 % 1017,2 hPa 0,0 l/m 0 min 0 min 0 W/m 3,2 km/h (1 Bft) 95,74 %
09.10.2020 23:54 10,7 C 9,4 C 9,4 C 96 % 1017,2 hPa 0,0 l/m 0 min 0 min 0 W/m 3,2 km/h (1 Bft) 97,87 %
09.10.2020 23:56 10,7 C 9,4 C 9,4 C 96 % 1017,2 hPa 0,0 l/m 0 min 0 min 0 W/m 3,2 km/h (1 Bft) 95,74 %
09.10.2020 23:58 10,7 C 9,4 C 9,4 C 96 % 1017,2 hPa 0,0 l/m 0 min 0 min 0 W/m 9,7 km/h (2 Bft) 97,87 %
_ Min-Zeit 07:42 07:02 07:00 17:20 00:00 - - - - 00:04 04:20
Minimum _ 9,1 C 7,2 C 7,2 C 67 % 1016,8 hPa - - - - 0,0 km/h (0 Bft) 50,00 %
_ Max-Zeit 17:02 14:02 16:52 09:50 09:48 08:16 12:07 19:36 14:02 16:08 00:00
Maximum _ 17,0 C 23,3 C 18,9 C 100 % 1018,8 hPa 0,2 l/m 3 min 2 min 721 W/m 22,5 km/h
S-SO (4 Bft)
100,00 %
Durchschnitt _ 12,7 C 12,2 C 11,1 C 91 % 1017,8 hPa #1,0 l/m #3:26 h #1:30 h 171 W/m 2,9 km/h (1 Bft) 97,29 %
© 2020 W. Hausmann